<?xml version='1.0' encoding='UTF-8'?>
<gpx version="1.1" creator="https://www.komoot.de" xmlns="http://www.topografix.com/GPX/1/1" xmlns:xsi="http://www.w3.org/2001/XMLSchema-instance" xsi:schemaLocation="http://www.topografix.com/GPX/1/1 http://www.topografix.com/GPX/1/1/gpx.xsd">
  <metadata>
    <name>ADFC-09.08.2025-44,5km-Eisdiele Lage</name>
    <author>
      <link href="https://www.komoot.de">
        <text>komoot</text>
        <type>text/html</type>
      </link>
    </author>
  </metadata>
  <trk>
    <name>ADFC-09.08.2025-44,5km-Eisdiele Lage</name>
    <trkseg>
      <trkpt lat="52.024446" lon="8.907343">
        <ele>97.455136</ele>
        <time>2025-08-09T07:04:10.910Z</time>
      </trkpt>
      <trkpt lat="52.024501" lon="8.907135">
        <ele>97.455136</ele>
        <time>2025-08-09T07:04:14.475Z</time>
      </trkpt>
      <trkpt lat="52.024630" lon="8.907230">
        <ele>97.455136</ele>
        <time>2025-08-09T07:04:18.159Z</time>
      </trkpt>
      <trkpt lat="52.024761" lon="8.907326">
        <ele>97.455136</ele>
        <time>2025-08-09T07:04:21.964Z</time>
      </trkpt>
      <trkpt lat="52.024891" lon="8.907415">
        <ele>97.455136</ele>
        <time>2025-08-09T07:04:25.777Z</time>
      </trkpt>
      <trkpt lat="52.025044" lon="8.907447">
        <ele>97.455136</ele>
        <time>2025-08-09T07:04:30.031Z</time>
      </trkpt>
      <trkpt lat="52.025134" lon="8.907465">
        <ele>97.455136</ele>
        <time>2025-08-09T07:04:32.561Z</time>
      </trkpt>
      <trkpt lat="52.025148" lon="8.907466">
        <ele>97.455136</ele>
        <time>2025-08-09T07:04:33.074Z</time>
      </trkpt>
      <trkpt lat="52.025203" lon="8.907453">
        <ele>97.455136</ele>
        <time>2025-08-09T07:04:35.112Z</time>
      </trkpt>
      <trkpt lat="52.025188" lon="8.907045">
        <ele>97.551301</ele>
        <time>2025-08-09T07:04:42.512Z</time>
      </trkpt>
      <trkpt lat="52.025135" lon="8.907017">
        <ele>97.574361</ele>
        <time>2025-08-09T07:04:44.512Z</time>
      </trkpt>
      <trkpt lat="52.024396" lon="8.906385">
        <ele>97.919900</ele>
        <time>2025-08-09T07:05:08.808Z</time>
      </trkpt>
      <trkpt lat="52.024340" lon="8.906308">
        <ele>97.950253</ele>
        <time>2025-08-09T07:05:10.910Z</time>
      </trkpt>
      <trkpt lat="52.024136" lon="8.906030">
        <ele>98.060414</ele>
        <time>2025-08-09T07:05:18.794Z</time>
      </trkpt>
      <trkpt lat="52.023984" lon="8.905573">
        <ele>98.192683</ele>
        <time>2025-08-09T07:05:28.066Z</time>
      </trkpt>
      <trkpt lat="52.023846" lon="8.904631">
        <ele>98.395499</ele>
        <time>2025-08-09T07:05:44.512Z</time>
      </trkpt>
      <trkpt lat="52.023851" lon="8.904259">
        <ele>98.472964</ele>
        <time>2025-08-09T07:05:50.794Z</time>
      </trkpt>
      <trkpt lat="52.023872" lon="8.904100">
        <ele>98.506820</ele>
        <time>2025-08-09T07:05:53.556Z</time>
      </trkpt>
      <trkpt lat="52.023892" lon="8.904000">
        <ele>98.528711</ele>
        <time>2025-08-09T07:05:55.349Z</time>
      </trkpt>
      <trkpt lat="52.023946" lon="8.903493">
        <ele>98.635832</ele>
        <time>2025-08-09T07:06:04.394Z</time>
      </trkpt>
      <trkpt lat="52.023918" lon="8.901989">
        <ele>98.932057</ele>
        <time>2025-08-09T07:06:31.355Z</time>
      </trkpt>
      <trkpt lat="52.023986" lon="8.901106">
        <ele>99.094965</ele>
        <time>2025-08-09T07:06:46.598Z</time>
      </trkpt>
      <trkpt lat="52.024077" lon="8.899614">
        <ele>99.613425</ele>
        <time>2025-08-09T07:07:11.183Z</time>
      </trkpt>
      <trkpt lat="52.024100" lon="8.899368">
        <ele>100.079949</ele>
        <time>2025-08-09T07:07:15.463Z</time>
      </trkpt>
      <trkpt lat="52.024068" lon="8.899374">
        <ele>100.178100</ele>
        <time>2025-08-09T07:07:16.491Z</time>
      </trkpt>
      <trkpt lat="52.023849" lon="8.899407">
        <ele>100.848259</ele>
        <time>2025-08-09T07:07:23.741Z</time>
      </trkpt>
      <trkpt lat="52.023683" lon="8.899522">
        <ele>101.398104</ele>
        <time>2025-08-09T07:07:30.050Z</time>
      </trkpt>
      <trkpt lat="52.023567" lon="8.899562">
        <ele>101.759427</ele>
        <time>2025-08-09T07:07:35.670Z</time>
      </trkpt>
      <trkpt lat="52.023550" lon="8.899572">
        <ele>101.814516</ele>
        <time>2025-08-09T07:07:36.526Z</time>
      </trkpt>
      <trkpt lat="52.023131" lon="8.899826">
        <ele>103.177147</ele>
        <time>2025-08-09T07:07:59.500Z</time>
      </trkpt>
      <trkpt lat="52.023110" lon="8.899839">
        <ele>103.245620</ele>
        <time>2025-08-09T07:08:00.661Z</time>
      </trkpt>
      <trkpt lat="52.023005" lon="8.899900">
        <ele>103.585386</ele>
        <time>2025-08-09T07:08:07.262Z</time>
      </trkpt>
      <trkpt lat="52.022901" lon="8.899961">
        <ele>103.922284</ele>
        <time>2025-08-09T07:08:13.865Z</time>
      </trkpt>
      <trkpt lat="52.022828" lon="8.899981">
        <ele>104.147855</ele>
        <time>2025-08-09T07:08:18.563Z</time>
      </trkpt>
      <trkpt lat="52.022797" lon="8.899796">
        <ele>104.507356</ele>
        <time>2025-08-09T07:08:24.832Z</time>
      </trkpt>
      <trkpt lat="52.022792" lon="8.899707">
        <ele>104.674923</ele>
        <time>2025-08-09T07:08:27.759Z</time>
      </trkpt>
      <trkpt lat="52.022756" lon="8.899700">
        <ele>104.785398</ele>
        <time>2025-08-09T07:08:29.777Z</time>
      </trkpt>
      <trkpt lat="52.022756" lon="8.899700">
        <ele>104.785398</ele>
        <time>2025-08-09T07:08:29.777Z</time>
      </trkpt>
      <trkpt lat="52.022670" lon="8.899678">
        <ele>105.198195</ele>
        <time>2025-08-09T07:08:34.772Z</time>
      </trkpt>
      <trkpt lat="52.022332" lon="8.899593">
        <ele>106.917236</ele>
        <time>2025-08-09T07:08:54.499Z</time>
      </trkpt>
      <trkpt lat="52.021981" lon="8.899493">
        <ele>108.708302</ele>
        <time>2025-08-09T07:09:15.373Z</time>
      </trkpt>
      <trkpt lat="52.021498" lon="8.899358">
        <ele>111.171553</ele>
        <time>2025-08-09T07:09:41.475Z</time>
      </trkpt>
      <trkpt lat="52.021367" lon="8.899321">
        <ele>111.839843</ele>
        <time>2025-08-09T07:09:48.009Z</time>
      </trkpt>
      <trkpt lat="52.021224" lon="8.899213">
        <ele>112.632404</ele>
        <time>2025-08-09T07:09:55.427Z</time>
      </trkpt>
      <trkpt lat="52.020953" lon="8.898970">
        <ele>113.914171</ele>
        <time>2025-08-09T07:10:08.651Z</time>
      </trkpt>
      <trkpt lat="52.020901" lon="8.898928">
        <ele>113.959590</ele>
        <time>2025-08-09T07:10:10.904Z</time>
      </trkpt>
      <trkpt lat="52.020279" lon="8.898426">
        <ele>114.502794</ele>
        <time>2025-08-09T07:10:34.093Z</time>
      </trkpt>
      <trkpt lat="52.019783" lon="8.898084">
        <ele>114.924226</ele>
        <time>2025-08-09T07:10:48.290Z</time>
      </trkpt>
      <trkpt lat="52.019676" lon="8.898034">
        <ele>115.011309</ele>
        <time>2025-08-09T07:10:51.018Z</time>
      </trkpt>
      <trkpt lat="52.019296" lon="8.897967">
        <ele>115.228135</ele>
        <time>2025-08-09T07:11:00.104Z</time>
      </trkpt>
      <trkpt lat="52.019129" lon="8.897880">
        <ele>115.081883</ele>
        <time>2025-08-09T07:11:04.197Z</time>
      </trkpt>
      <trkpt lat="52.018499" lon="8.897354">
        <ele>114.491203</ele>
        <time>2025-08-09T07:11:20.486Z</time>
      </trkpt>
      <trkpt lat="52.018432" lon="8.897310">
        <ele>114.430938</ele>
        <time>2025-08-09T07:11:22.112Z</time>
      </trkpt>
      <trkpt lat="52.018370" lon="8.897258">
        <ele>114.372752</ele>
        <time>2025-08-09T07:11:23.714Z</time>
      </trkpt>
      <trkpt lat="52.018011" lon="8.896748">
        <ele>113.975082</ele>
        <time>2025-08-09T07:11:34.812Z</time>
      </trkpt>
      <trkpt lat="52.017698" lon="8.896259">
        <ele>113.780762</ele>
        <time>2025-08-09T07:11:45.506Z</time>
      </trkpt>
      <trkpt lat="52.017625" lon="8.896164">
        <ele>113.785818</ele>
        <time>2025-08-09T07:11:47.939Z</time>
      </trkpt>
      <trkpt lat="52.017411" lon="8.895903">
        <ele>113.800282</ele>
        <time>2025-08-09T07:11:55.063Z</time>
      </trkpt>
      <trkpt lat="52.017327" lon="8.895819">
        <ele>113.805614</ele>
        <time>2025-08-09T07:11:57.697Z</time>
      </trkpt>
      <trkpt lat="52.017073" lon="8.895568">
        <ele>113.821684</ele>
        <time>2025-08-09T07:12:05.698Z</time>
      </trkpt>
      <trkpt lat="52.016916" lon="8.895413">
        <ele>113.831615</ele>
        <time>2025-08-09T07:12:10.806Z</time>
      </trkpt>
      <trkpt lat="52.016800" lon="8.895210">
        <ele>113.840831</ele>
        <time>2025-08-09T07:12:15.629Z</time>
      </trkpt>
      <trkpt lat="52.016712" lon="8.894966">
        <ele>113.850239</ele>
        <time>2025-08-09T07:12:20.699Z</time>
      </trkpt>
      <trkpt lat="52.016678" lon="8.894870">
        <ele>113.853924</ele>
        <time>2025-08-09T07:12:22.663Z</time>
      </trkpt>
      <trkpt lat="52.016404" lon="8.894007">
        <ele>114.052707</ele>
        <time>2025-08-09T07:12:39.635Z</time>
      </trkpt>
      <trkpt lat="52.016199" lon="8.893466">
        <ele>114.264531</ele>
        <time>2025-08-09T07:12:50.401Z</time>
      </trkpt>
      <trkpt lat="52.015762" lon="8.892411">
        <ele>114.688532</ele>
        <time>2025-08-09T07:13:13.517Z</time>
      </trkpt>
      <trkpt lat="52.015220" lon="8.891113">
        <ele>115.126504</ele>
        <time>2025-08-09T07:13:43.929Z</time>
      </trkpt>
      <trkpt lat="52.014898" lon="8.890313">
        <ele>115.371855</ele>
        <time>2025-08-09T07:14:01.297Z</time>
      </trkpt>
      <trkpt lat="52.014882" lon="8.890169">
        <ele>115.409414</ele>
        <time>2025-08-09T07:14:03.795Z</time>
      </trkpt>
      <trkpt lat="52.014929" lon="8.889950">
        <ele>115.468945</ele>
        <time>2025-08-09T07:14:07.627Z</time>
      </trkpt>
      <trkpt lat="52.015118" lon="8.890079">
        <ele>115.554439</ele>
        <time>2025-08-09T07:14:12.975Z</time>
      </trkpt>
      <trkpt lat="52.015147" lon="8.890003">
        <ele>115.577391</ele>
        <time>2025-08-09T07:14:14.824Z</time>
      </trkpt>
      <trkpt lat="52.015230" lon="8.889700">
        <ele>115.417990</ele>
        <time>2025-08-09T07:14:21.532Z</time>
      </trkpt>
      <trkpt lat="52.015262" lon="8.889442">
        <ele>115.250272</ele>
        <time>2025-08-09T07:14:26.777Z</time>
      </trkpt>
      <trkpt lat="52.015320" lon="8.889437">
        <ele>115.190133</ele>
        <time>2025-08-09T07:14:28.586Z</time>
      </trkpt>
      <trkpt lat="52.015371" lon="8.888920">
        <ele>114.856467</ele>
        <time>2025-08-09T07:14:35.835Z</time>
      </trkpt>
      <trkpt lat="52.015371" lon="8.888808">
        <ele>114.785095</ele>
        <time>2025-08-09T07:14:37.346Z</time>
      </trkpt>
      <trkpt lat="52.015371" lon="8.888456">
        <ele>114.560781</ele>
        <time>2025-08-09T07:14:42.129Z</time>
      </trkpt>
      <trkpt lat="52.015254" lon="8.887819">
        <ele>114.137158</ele>
        <time>2025-08-09T07:14:51.272Z</time>
      </trkpt>
      <trkpt lat="52.015148" lon="8.887246">
        <ele>113.755872</ele>
        <time>2025-08-09T07:15:02.600Z</time>
      </trkpt>
      <trkpt lat="52.014992" lon="8.887219">
        <ele>113.642914</ele>
        <time>2025-08-09T07:15:06.133Z</time>
      </trkpt>
      <trkpt lat="52.015015" lon="8.887008">
        <ele>113.555858</ele>
        <time>2025-08-09T07:15:09.109Z</time>
      </trkpt>
      <trkpt lat="52.014801" lon="8.885151">
        <ele>112.788316</ele>
        <time>2025-08-09T07:15:36.878Z</time>
      </trkpt>
      <trkpt lat="52.014690" lon="8.883834">
        <ele>112.320854</ele>
        <time>2025-08-09T07:15:58.891Z</time>
      </trkpt>
      <trkpt lat="52.014693" lon="8.883612">
        <ele>112.252884</ele>
        <time>2025-08-09T07:16:02.431Z</time>
      </trkpt>
      <trkpt lat="52.014699" lon="8.883179">
        <ele>112.120311</ele>
        <time>2025-08-09T07:16:09.251Z</time>
      </trkpt>
      <trkpt lat="52.014700" lon="8.882426">
        <ele>111.889820</ele>
        <time>2025-08-09T07:16:20.782Z</time>
      </trkpt>
      <trkpt lat="52.014700" lon="8.882325">
        <ele>111.858904</ele>
        <time>2025-08-09T07:16:22.295Z</time>
      </trkpt>
      <trkpt lat="52.014725" lon="8.881601">
        <ele>111.612424</ele>
        <time>2025-08-09T07:16:32.885Z</time>
      </trkpt>
      <trkpt lat="52.014589" lon="8.880241">
        <ele>110.264451</ele>
        <time>2025-08-09T07:16:51.449Z</time>
      </trkpt>
      <trkpt lat="52.014288" lon="8.877949">
        <ele>108.139052</ele>
        <time>2025-08-09T07:17:22.231Z</time>
      </trkpt>
      <trkpt lat="52.014295" lon="8.877680">
        <ele>107.929596</ele>
        <time>2025-08-09T07:17:25.891Z</time>
      </trkpt>
      <trkpt lat="52.014379" lon="8.877456">
        <ele>107.725537</ele>
        <time>2025-08-09T07:17:29.497Z</time>
      </trkpt>
      <trkpt lat="52.014289" lon="8.877348">
        <ele>107.584114</ele>
        <time>2025-08-09T07:17:32.013Z</time>
      </trkpt>
      <trkpt lat="52.014217" lon="8.877282">
        <ele>107.479621</ele>
        <time>2025-08-09T07:17:33.880Z</time>
      </trkpt>
      <trkpt lat="52.014173" lon="8.877215">
        <ele>107.403398</ele>
        <time>2025-08-09T07:17:35.234Z</time>
      </trkpt>
      <trkpt lat="52.014085" lon="8.877021">
        <ele>107.215914</ele>
        <time>2025-08-09T07:17:38.588Z</time>
      </trkpt>
      <trkpt lat="52.013873" lon="8.876216">
        <ele>106.534738</ele>
        <time>2025-08-09T07:17:51.287Z</time>
      </trkpt>
      <trkpt lat="52.013806" lon="8.876044">
        <ele>106.471604</ele>
        <time>2025-08-09T07:17:54.414Z</time>
      </trkpt>
      <trkpt lat="52.013659" lon="8.875770">
        <ele>106.382357</ele>
        <time>2025-08-09T07:18:00.025Z</time>
      </trkpt>
      <trkpt lat="52.013500" lon="8.875271">
        <ele>106.244391</ele>
        <time>2025-08-09T07:18:08.672Z</time>
      </trkpt>
      <trkpt lat="52.013446" lon="8.874854">
        <ele>106.139762</ele>
        <time>2025-08-09T07:18:15.299Z</time>
      </trkpt>
      <trkpt lat="52.013371" lon="8.874400">
        <ele>106.024345</ele>
        <time>2025-08-09T07:18:22.588Z</time>
      </trkpt>
      <trkpt lat="52.013141" lon="8.873502">
        <ele>105.775955</ele>
        <time>2025-08-09T07:18:38.083Z</time>
      </trkpt>
      <trkpt lat="52.013042" lon="8.873115">
        <ele>105.593976</ele>
        <time>2025-08-09T07:18:44.799Z</time>
      </trkpt>
      <trkpt lat="52.012760" lon="8.871782">
        <ele>104.981924</ele>
        <time>2025-08-09T07:19:06.164Z</time>
      </trkpt>
      <trkpt lat="52.012646" lon="8.870991">
        <ele>104.629165</ele>
        <time>2025-08-09T07:19:17.711Z</time>
      </trkpt>
      <trkpt lat="52.012594" lon="8.869247">
        <ele>103.000906</ele>
        <time>2025-08-09T07:19:41.304Z</time>
      </trkpt>
      <trkpt lat="52.012294" lon="8.867253">
        <ele>101.137913</ele>
        <time>2025-08-09T07:20:08.243Z</time>
      </trkpt>
      <trkpt lat="52.012251" lon="8.866855">
        <ele>100.859871</ele>
        <time>2025-08-09T07:20:13.537Z</time>
      </trkpt>
      <trkpt lat="52.013006" lon="8.865832">
        <ele>99.760838</ele>
        <time>2025-08-09T07:20:35.935Z</time>
      </trkpt>
      <trkpt lat="52.013054" lon="8.865691">
        <ele>99.649969</ele>
        <time>2025-08-09T07:20:38.392Z</time>
      </trkpt>
      <trkpt lat="52.012777" lon="8.860369">
        <ele>101.340985</ele>
        <time>2025-08-09T07:22:17.530Z</time>
      </trkpt>
      <trkpt lat="52.012796" lon="8.859514">
        <ele>101.462454</ele>
        <time>2025-08-09T07:22:32.066Z</time>
      </trkpt>
      <trkpt lat="52.012897" lon="8.858911">
        <ele>101.234945</ele>
        <time>2025-08-09T07:22:41.934Z</time>
      </trkpt>
      <trkpt lat="52.012943" lon="8.858586">
        <ele>101.113540</ele>
        <time>2025-08-09T07:22:47.013Z</time>
      </trkpt>
      <trkpt lat="52.013089" lon="8.856471">
        <ele>100.255439</ele>
        <time>2025-08-09T07:23:17.725Z</time>
      </trkpt>
      <trkpt lat="52.013080" lon="8.856317">
        <ele>100.167094</ele>
        <time>2025-08-09T07:23:19.924Z</time>
      </trkpt>
      <trkpt lat="52.012655" lon="8.855646">
        <ele>99.617217</ele>
        <time>2025-08-09T07:23:33.173Z</time>
      </trkpt>
      <trkpt lat="52.012504" lon="8.855292">
        <ele>99.371240</ele>
        <time>2025-08-09T07:23:39.233Z</time>
      </trkpt>
      <trkpt lat="52.012475" lon="8.855173">
        <ele>99.298144</ele>
        <time>2025-08-09T07:23:41.112Z</time>
      </trkpt>
      <trkpt lat="52.012410" lon="8.854906">
        <ele>99.134164</ele>
        <time>2025-08-09T07:23:45.314Z</time>
      </trkpt>
      <trkpt lat="52.012379" lon="8.854567">
        <ele>98.938433</ele>
        <time>2025-08-09T07:23:50.409Z</time>
      </trkpt>
      <trkpt lat="52.012349" lon="8.854339">
        <ele>98.812097</ele>
        <time>2025-08-09T07:23:53.955Z</time>
      </trkpt>
      <trkpt lat="52.012187" lon="8.852878">
        <ele>98.490662</ele>
        <time>2025-08-09T07:24:17.359Z</time>
      </trkpt>
      <trkpt lat="52.012156" lon="8.852861">
        <ele>98.479152</ele>
        <time>2025-08-09T07:24:18.219Z</time>
      </trkpt>
      <trkpt lat="52.012020" lon="8.852319">
        <ele>98.352417</ele>
        <time>2025-08-09T07:24:27.840Z</time>
      </trkpt>
      <trkpt lat="52.011980" lon="8.852277">
        <ele>98.335663</ele>
        <time>2025-08-09T07:24:29.084Z</time>
      </trkpt>
      <trkpt lat="52.012465" lon="8.851807">
        <ele>98.102004</ele>
        <time>2025-08-09T07:24:43.045Z</time>
      </trkpt>
      <trkpt lat="52.012520" lon="8.851850">
        <ele>98.064377</ele>
        <time>2025-08-09T07:24:44.509Z</time>
      </trkpt>
      <trkpt lat="52.012907" lon="8.851916">
        <ele>97.824496</ele>
        <time>2025-08-09T07:24:53.559Z</time>
      </trkpt>
      <trkpt lat="52.012988" lon="8.851984">
        <ele>97.768292</ele>
        <time>2025-08-09T07:24:55.669Z</time>
      </trkpt>
      <trkpt lat="52.013239" lon="8.852347">
        <ele>97.561142</ele>
        <time>2025-08-09T07:25:03.405Z</time>
      </trkpt>
      <trkpt lat="52.013345" lon="8.852454">
        <ele>97.484212</ele>
        <time>2025-08-09T07:25:06.321Z</time>
      </trkpt>
      <trkpt lat="52.013553" lon="8.852524">
        <ele>97.353267</ele>
        <time>2025-08-09T07:25:11.399Z</time>
      </trkpt>
      <trkpt lat="52.013893" lon="8.852291">
        <ele>97.125790</ele>
        <time>2025-08-09T07:25:20.764Z</time>
      </trkpt>
      <trkpt lat="52.014234" lon="8.851863">
        <ele>96.950680</ele>
        <time>2025-08-09T07:25:32.313Z</time>
      </trkpt>
      <trkpt lat="52.014257" lon="8.851808">
        <ele>96.936095</ele>
        <time>2025-08-09T07:25:33.440Z</time>
      </trkpt>
      <trkpt lat="52.014604" lon="8.851655">
        <ele>96.807956</ele>
        <time>2025-08-09T07:25:43.145Z</time>
      </trkpt>
      <trkpt lat="52.014993" lon="8.851556">
        <ele>96.667630</ele>
        <time>2025-08-09T07:25:53.245Z</time>
      </trkpt>
      <trkpt lat="52.015326" lon="8.851405">
        <ele>96.544418</ele>
        <time>2025-08-09T07:26:01.830Z</time>
      </trkpt>
      <trkpt lat="52.015549" lon="8.851335">
        <ele>96.463474</ele>
        <time>2025-08-09T07:26:07.345Z</time>
      </trkpt>
      <trkpt lat="52.016073" lon="8.851276">
        <ele>96.030583</ele>
        <time>2025-08-09T07:26:19.482Z</time>
      </trkpt>
      <trkpt lat="52.015926" lon="8.849572">
        <ele>95.064182</ele>
        <time>2025-08-09T07:26:43.416Z</time>
      </trkpt>
      <trkpt lat="52.015833" lon="8.848498">
        <ele>94.962125</ele>
        <time>2025-08-09T07:26:59.927Z</time>
      </trkpt>
      <trkpt lat="52.015699" lon="8.848035">
        <ele>95.106840</ele>
        <time>2025-08-09T07:27:08.274Z</time>
      </trkpt>
      <trkpt lat="52.013836" lon="8.843249">
        <ele>97.854288</ele>
        <time>2025-08-09T07:28:58.014Z</time>
      </trkpt>
      <trkpt lat="52.013637" lon="8.842762">
        <ele>98.127187</ele>
        <time>2025-08-09T07:29:09.062Z</time>
      </trkpt>
      <trkpt lat="52.013219" lon="8.841734">
        <ele>98.702383</ele>
        <time>2025-08-09T07:29:31.806Z</time>
      </trkpt>
      <trkpt lat="52.012887" lon="8.840904">
        <ele>98.997501</ele>
        <time>2025-08-09T07:29:49.297Z</time>
      </trkpt>
      <trkpt lat="52.013686" lon="8.838905">
        <ele>99.443368</ele>
        <time>2025-08-09T07:30:31.789Z</time>
      </trkpt>
      <trkpt lat="52.013859" lon="8.838368">
        <ele>99.210319</ele>
        <time>2025-08-09T07:30:41.915Z</time>
      </trkpt>
      <trkpt lat="52.013891" lon="8.837974">
        <ele>99.057515</ele>
        <time>2025-08-09T07:30:47.898Z</time>
      </trkpt>
      <trkpt lat="52.014522" lon="8.838000">
        <ele>98.663192</ele>
        <time>2025-08-09T07:31:03.331Z</time>
      </trkpt>
      <trkpt lat="52.014836" lon="8.837961">
        <ele>98.466459</ele>
        <time>2025-08-09T07:31:10.387Z</time>
      </trkpt>
      <trkpt lat="52.017116" lon="8.837684">
        <ele>94.922543</ele>
        <time>2025-08-09T07:32:00.577Z</time>
      </trkpt>
      <trkpt lat="52.017248" lon="8.837668">
        <ele>94.661631</ele>
        <time>2025-08-09T07:32:03.509Z</time>
      </trkpt>
      <trkpt lat="52.017709" lon="8.837764">
        <ele>93.745509</ele>
        <time>2025-08-09T07:32:13.811Z</time>
      </trkpt>
      <trkpt lat="52.017712" lon="8.837679">
        <ele>93.642229</ele>
        <time>2025-08-09T07:32:14.995Z</time>
      </trkpt>
      <trkpt lat="52.018581" lon="8.838095">
        <ele>91.674283</ele>
        <time>2025-08-09T07:32:33.449Z</time>
      </trkpt>
      <trkpt lat="52.018640" lon="8.838096">
        <ele>91.497969</ele>
        <time>2025-08-09T07:32:34.584Z</time>
      </trkpt>
      <trkpt lat="52.018687" lon="8.838060">
        <ele>91.342702</ele>
        <time>2025-08-09T07:32:35.578Z</time>
      </trkpt>
      <trkpt lat="52.018753" lon="8.837822">
        <ele>90.862647</ele>
        <time>2025-08-09T07:32:38.648Z</time>
      </trkpt>
      <trkpt lat="52.018827" lon="8.837682">
        <ele>90.523266</ele>
        <time>2025-08-09T07:32:40.833Z</time>
      </trkpt>
      <trkpt lat="52.018889" lon="8.837627">
        <ele>90.312187</ele>
        <time>2025-08-09T07:32:42.170Z</time>
      </trkpt>
      <trkpt lat="52.018940" lon="8.837588">
        <ele>90.143756</ele>
        <time>2025-08-09T07:32:43.271Z</time>
      </trkpt>
      <trkpt lat="52.019136" lon="8.837464">
        <ele>89.515243</ele>
        <time>2025-08-09T07:32:47.294Z</time>
      </trkpt>
      <trkpt lat="52.019296" lon="8.837365">
        <ele>89.003642</ele>
        <time>2025-08-09T07:32:50.587Z</time>
      </trkpt>
      <trkpt lat="52.019571" lon="8.837243">
        <ele>88.151810</ele>
        <time>2025-08-09T07:32:56.106Z</time>
      </trkpt>
      <trkpt lat="52.019793" lon="8.837221">
        <ele>87.487195</ele>
        <time>2025-08-09T07:33:00.445Z</time>
      </trkpt>
      <trkpt lat="52.020123" lon="8.837279">
        <ele>86.751742</ele>
        <time>2025-08-09T07:33:07.013Z</time>
      </trkpt>
      <trkpt lat="52.021150" lon="8.837986">
        <ele>85.934685</ele>
        <time>2025-08-09T07:33:34.437Z</time>
      </trkpt>
      <trkpt lat="52.021470" lon="8.838145">
        <ele>85.689555</ele>
        <time>2025-08-09T07:33:43.325Z</time>
      </trkpt>
      <trkpt lat="52.021481" lon="8.838150">
        <ele>85.681188</ele>
        <time>2025-08-09T07:33:43.651Z</time>
      </trkpt>
      <trkpt lat="52.021648" lon="8.838203">
        <ele>85.556540</ele>
        <time>2025-08-09T07:33:48.119Z</time>
      </trkpt>
      <trkpt lat="52.021928" lon="8.838242">
        <ele>85.627727</ele>
        <time>2025-08-09T07:33:55.598Z</time>
      </trkpt>
      <trkpt lat="52.022071" lon="8.838248">
        <ele>85.697057</ele>
        <time>2025-08-09T07:33:59.471Z</time>
      </trkpt>
      <trkpt lat="52.022565" lon="8.838221">
        <ele>85.936617</ele>
        <time>2025-08-09T07:34:13.103Z</time>
      </trkpt>
      <trkpt lat="52.022901" lon="8.838283">
        <ele>86.100511</ele>
        <time>2025-08-09T07:34:22.396Z</time>
      </trkpt>
      <trkpt lat="52.024054" lon="8.838217">
        <ele>87.439508</ele>
        <time>2025-08-09T07:34:59.974Z</time>
      </trkpt>
      <trkpt lat="52.024444" lon="8.838192">
        <ele>88.173976</ele>
        <time>2025-08-09T07:35:14.747Z</time>
      </trkpt>
      <trkpt lat="52.024502" lon="8.838140">
        <ele>88.298626</ele>
        <time>2025-08-09T07:35:17.290Z</time>
      </trkpt>
      <trkpt lat="52.024579" lon="8.838291">
        <ele>88.525708</ele>
        <time>2025-08-09T07:35:22.012Z</time>
      </trkpt>
      <trkpt lat="52.025624" lon="8.838233">
        <ele>90.016166</ele>
        <time>2025-08-09T07:36:00.988Z</time>
      </trkpt>
      <trkpt lat="52.025720" lon="8.838258">
        <ele>90.077791</ele>
        <time>2025-08-09T07:36:04.263Z</time>
      </trkpt>
      <trkpt lat="52.025759" lon="8.837955">
        <ele>90.198521</ele>
        <time>2025-08-09T07:36:10.329Z</time>
      </trkpt>
      <trkpt lat="52.025748" lon="8.837848">
        <ele>90.240830</ele>
        <time>2025-08-09T07:36:12.370Z</time>
      </trkpt>
      <trkpt lat="52.025717" lon="8.837558">
        <ele>90.355627</ele>
        <time>2025-08-09T07:36:17.735Z</time>
      </trkpt>
      <trkpt lat="52.025723" lon="8.837420">
        <ele>90.409582</ele>
        <time>2025-08-09T07:36:20.178Z</time>
      </trkpt>
      <trkpt lat="52.025647" lon="8.836870">
        <ele>90.629429</ele>
        <time>2025-08-09T07:36:29.514Z</time>
      </trkpt>
      <trkpt lat="52.025573" lon="8.836137">
        <ele>90.908470</ele>
        <time>2025-08-09T07:36:40.616Z</time>
      </trkpt>
      <trkpt lat="52.025512" lon="8.835361">
        <ele>90.595079</ele>
        <time>2025-08-09T07:36:52.028Z</time>
      </trkpt>
      <trkpt lat="52.025481" lon="8.835017">
        <ele>90.455803</ele>
        <time>2025-08-09T07:36:56.914Z</time>
      </trkpt>
      <trkpt lat="52.025473" lon="8.834833">
        <ele>90.381909</ele>
        <time>2025-08-09T07:36:59.482Z</time>
      </trkpt>
      <trkpt lat="52.025461" lon="8.834556">
        <ele>90.270669</ele>
        <time>2025-08-09T07:37:03.430Z</time>
      </trkpt>
      <trkpt lat="52.025456" lon="8.834343">
        <ele>90.185279</ele>
        <time>2025-08-09T07:37:06.489Z</time>
      </trkpt>
      <trkpt lat="52.025458" lon="8.834131">
        <ele>90.100342</ele>
        <time>2025-08-09T07:37:09.562Z</time>
      </trkpt>
      <trkpt lat="52.025460" lon="8.833776">
        <ele>89.958124</ele>
        <time>2025-08-09T07:37:14.802Z</time>
      </trkpt>
      <trkpt lat="52.025461" lon="8.833384">
        <ele>89.801088</ele>
        <time>2025-08-09T07:37:20.547Z</time>
      </trkpt>
      <trkpt lat="52.025479" lon="8.832871">
        <ele>90.220725</ele>
        <time>2025-08-09T07:37:28.633Z</time>
      </trkpt>
      <trkpt lat="52.025538" lon="8.832059">
        <ele>91.281056</ele>
        <time>2025-08-09T07:37:44.803Z</time>
      </trkpt>
      <trkpt lat="52.025538" lon="8.832055">
        <ele>91.286244</ele>
        <time>2025-08-09T07:37:44.887Z</time>
      </trkpt>
      <trkpt lat="52.025504" lon="8.831539">
        <ele>91.959227</ele>
        <time>2025-08-09T07:37:57.261Z</time>
      </trkpt>
      <trkpt lat="52.025570" lon="8.831524">
        <ele>92.099681</ele>
        <time>2025-08-09T07:38:00.113Z</time>
      </trkpt>
      <trkpt lat="52.026075" lon="8.831680">
        <ele>93.183064</ele>
        <time>2025-08-09T07:38:22.676Z</time>
      </trkpt>
      <trkpt lat="52.026337" lon="8.831708">
        <ele>93.806367</ele>
        <time>2025-08-09T07:38:34.658Z</time>
      </trkpt>
      <trkpt lat="52.026386" lon="8.831710">
        <ele>93.945291</ele>
        <time>2025-08-09T07:38:36.803Z</time>
      </trkpt>
      <trkpt lat="52.026795" lon="8.831736">
        <ele>95.105397</ele>
        <time>2025-08-09T07:38:55.674Z</time>
      </trkpt>
      <trkpt lat="52.027116" lon="8.831780">
        <ele>96.018430</ele>
        <time>2025-08-09T07:39:09.709Z</time>
      </trkpt>
      <trkpt lat="52.027524" lon="8.831842">
        <ele>97.179859</ele>
        <time>2025-08-09T07:39:25.692Z</time>
      </trkpt>
      <trkpt lat="52.028006" lon="8.832022">
        <ele>98.581579</ele>
        <time>2025-08-09T07:39:43.159Z</time>
      </trkpt>
      <trkpt lat="52.028778" lon="8.832399">
        <ele>99.426000</ele>
        <time>2025-08-09T07:40:09.342Z</time>
      </trkpt>
      <trkpt lat="52.029055" lon="8.832463">
        <ele>99.707920</ele>
        <time>2025-08-09T07:40:18.136Z</time>
      </trkpt>
      <trkpt lat="52.029335" lon="8.832517">
        <ele>99.992035</ele>
        <time>2025-08-09T07:40:26.755Z</time>
      </trkpt>
      <trkpt lat="52.029631" lon="8.832532">
        <ele>100.290439</ele>
        <time>2025-08-09T07:40:35.583Z</time>
      </trkpt>
      <trkpt lat="52.029713" lon="8.832527">
        <ele>100.373123</ele>
        <time>2025-08-09T07:40:37.980Z</time>
      </trkpt>
      <trkpt lat="52.031941" lon="8.833071">
        <ele>101.405538</ele>
        <time>2025-08-09T07:41:41.753Z</time>
      </trkpt>
      <trkpt lat="52.032018" lon="8.833046">
        <ele>101.461043</ele>
        <time>2025-08-09T07:41:44.108Z</time>
      </trkpt>
      <trkpt lat="52.032106" lon="8.833092">
        <ele>101.526385</ele>
        <time>2025-08-09T07:41:46.913Z</time>
      </trkpt>
      <trkpt lat="52.032688" lon="8.833203">
        <ele>101.940608</ele>
        <time>2025-08-09T07:42:05.076Z</time>
      </trkpt>
      <trkpt lat="52.032764" lon="8.833220">
        <ele>101.994837</ele>
        <time>2025-08-09T07:42:07.507Z</time>
      </trkpt>
      <trkpt lat="52.033050" lon="8.833276">
        <ele>102.198464</ele>
        <time>2025-08-09T07:42:16.800Z</time>
      </trkpt>
      <trkpt lat="52.034154" lon="8.833489">
        <ele>102.472832</ele>
        <time>2025-08-09T07:42:49.396Z</time>
      </trkpt>
      <trkpt lat="52.034237" lon="8.832255">
        <ele>102.535699</ele>
        <time>2025-08-09T07:43:09.183Z</time>
      </trkpt>
      <trkpt lat="52.034305" lon="8.831247">
        <ele>102.303499</ele>
        <time>2025-08-09T07:43:24.131Z</time>
      </trkpt>
      <trkpt lat="52.034469" lon="8.828817">
        <ele>101.380567</ele>
        <time>2025-08-09T07:44:00.462Z</time>
      </trkpt>
      <trkpt lat="52.034531" lon="8.827902">
        <ele>101.027701</ele>
        <time>2025-08-09T07:44:14.107Z</time>
      </trkpt>
      <trkpt lat="52.034566" lon="8.827330">
        <ele>100.807356</ele>
        <time>2025-08-09T07:44:22.620Z</time>
      </trkpt>
      <trkpt lat="52.034585" lon="8.827022">
        <ele>100.688700</ele>
        <time>2025-08-09T07:44:27.289Z</time>
      </trkpt>
      <trkpt lat="52.034617" lon="8.826497">
        <ele>100.486468</ele>
        <time>2025-08-09T07:44:35.306Z</time>
      </trkpt>
      <trkpt lat="52.034634" lon="8.826221">
        <ele>100.380141</ele>
        <time>2025-08-09T07:44:39.512Z</time>
      </trkpt>
      <trkpt lat="52.034659" lon="8.825808">
        <ele>100.220076</ele>
        <time>2025-08-09T07:44:45.763Z</time>
      </trkpt>
      <trkpt lat="52.034685" lon="8.825380">
        <ele>100.053726</ele>
        <time>2025-08-09T07:44:52.061Z</time>
      </trkpt>
      <trkpt lat="52.034709" lon="8.824991">
        <ele>99.902511</ele>
        <time>2025-08-09T07:44:57.765Z</time>
      </trkpt>
      <trkpt lat="52.034726" lon="8.824718">
        <ele>99.796379</ele>
        <time>2025-08-09T07:45:01.795Z</time>
      </trkpt>
      <trkpt lat="52.034740" lon="8.824502">
        <ele>99.712370</ele>
        <time>2025-08-09T07:45:05.005Z</time>
      </trkpt>
      <trkpt lat="52.034787" lon="8.823815">
        <ele>99.445010</ele>
        <time>2025-08-09T07:45:15.357Z</time>
      </trkpt>
      <trkpt lat="52.034824" lon="8.823254">
        <ele>99.226779</ele>
        <time>2025-08-09T07:45:23.680Z</time>
      </trkpt>
      <trkpt lat="52.035028" lon="8.820079">
        <ele>98.400821</ele>
        <time>2025-08-09T07:46:12.141Z</time>
      </trkpt>
      <trkpt lat="52.035196" lon="8.820136">
        <ele>98.443324</ele>
        <time>2025-08-09T07:46:16.746Z</time>
      </trkpt>
      <trkpt lat="52.036060" lon="8.820428">
        <ele>98.661871</ele>
        <time>2025-08-09T07:46:41.520Z</time>
      </trkpt>
      <trkpt lat="52.036275" lon="8.820503">
        <ele>98.716328</ele>
        <time>2025-08-09T07:46:47.986Z</time>
      </trkpt>
      <trkpt lat="52.036559" lon="8.820610">
        <ele>98.788526</ele>
        <time>2025-08-09T07:46:56.700Z</time>
      </trkpt>
      <trkpt lat="52.037785" lon="8.821079">
        <ele>99.279096</ele>
        <time>2025-08-09T07:47:33.496Z</time>
      </trkpt>
      <trkpt lat="52.038120" lon="8.821212">
        <ele>99.418163</ele>
        <time>2025-08-09T07:47:43.217Z</time>
      </trkpt>
      <trkpt lat="52.038252" lon="8.821303">
        <ele>99.475984</ele>
        <time>2025-08-09T07:47:47.220Z</time>
      </trkpt>
      <trkpt lat="52.038298" lon="8.821348">
        <ele>99.497634</ele>
        <time>2025-08-09T07:47:48.715Z</time>
      </trkpt>
      <trkpt lat="52.038437" lon="8.821490">
        <ele>99.525123</ele>
        <time>2025-08-09T07:47:53.237Z</time>
      </trkpt>
      <trkpt lat="52.038497" lon="8.821378">
        <ele>99.498174</ele>
        <time>2025-08-09T07:47:55.732Z</time>
      </trkpt>
      <trkpt lat="52.038540" lon="8.821349">
        <ele>99.484441</ele>
        <time>2025-08-09T07:47:57.028Z</time>
      </trkpt>
      <trkpt lat="52.038806" lon="8.821440">
        <ele>99.404257</ele>
        <time>2025-08-09T07:48:04.366Z</time>
      </trkpt>
      <trkpt lat="52.040221" lon="8.821980">
        <ele>98.845599</ele>
        <time>2025-08-09T07:48:40.909Z</time>
      </trkpt>
      <trkpt lat="52.040278" lon="8.821965">
        <ele>98.766058</ele>
        <time>2025-08-09T07:48:42.263Z</time>
      </trkpt>
      <trkpt lat="52.040358" lon="8.821850">
        <ele>98.618955</ele>
        <time>2025-08-09T07:48:44.739Z</time>
      </trkpt>
      <trkpt lat="52.041507" lon="8.817987">
        <ele>94.988438</ele>
        <time>2025-08-09T07:49:42.315Z</time>
      </trkpt>
      <trkpt lat="52.042243" lon="8.815364">
        <ele>93.226948</ele>
        <time>2025-08-09T07:50:23.573Z</time>
      </trkpt>
      <trkpt lat="52.042509" lon="8.814344">
        <ele>92.708388</ele>
        <time>2025-08-09T07:50:40.333Z</time>
      </trkpt>
      <trkpt lat="52.042697" lon="8.813768">
        <ele>92.569578</ele>
        <time>2025-08-09T07:50:50.282Z</time>
      </trkpt>
      <trkpt lat="52.042702" lon="8.813380">
        <ele>92.491425</ele>
        <time>2025-08-09T07:50:56.286Z</time>
      </trkpt>
      <trkpt lat="52.042728" lon="8.813174">
        <ele>92.449076</ele>
        <time>2025-08-09T07:50:59.514Z</time>
      </trkpt>
      <trkpt lat="52.042813" lon="8.812980">
        <ele>92.401109</ele>
        <time>2025-08-09T07:51:03.185Z</time>
      </trkpt>
      <trkpt lat="52.042930" lon="8.812799">
        <ele>92.348231</ele>
        <time>2025-08-09T07:51:07.209Z</time>
      </trkpt>
      <trkpt lat="52.042994" lon="8.812611">
        <ele>92.304960</ele>
        <time>2025-08-09T07:51:10.499Z</time>
      </trkpt>
      <trkpt lat="52.043775" lon="8.809745">
        <ele>92.069793</ele>
        <time>2025-08-09T07:52:00.549Z</time>
      </trkpt>
      <trkpt lat="52.044167" lon="8.808118">
        <ele>92.235881</ele>
        <time>2025-08-09T07:52:30.825Z</time>
      </trkpt>
      <trkpt lat="52.044428" lon="8.806320">
        <ele>92.576828</ele>
        <time>2025-08-09T07:53:03.258Z</time>
      </trkpt>
      <trkpt lat="52.044522" lon="8.806362">
        <ele>92.597493</ele>
        <time>2025-08-09T07:53:05.945Z</time>
      </trkpt>
      <trkpt lat="52.044691" lon="8.806453">
        <ele>92.603992</ele>
        <time>2025-08-09T07:53:10.852Z</time>
      </trkpt>
      <trkpt lat="52.044869" lon="8.806549">
        <ele>92.610839</ele>
        <time>2025-08-09T07:53:16.050Z</time>
      </trkpt>
      <trkpt lat="52.045362" lon="8.806795">
        <ele>92.629666</ele>
        <time>2025-08-09T07:53:30.120Z</time>
      </trkpt>
      <trkpt lat="52.045764" lon="8.805867">
        <ele>92.655153</ele>
        <time>2025-08-09T07:53:48.436Z</time>
      </trkpt>
      <trkpt lat="52.047692" lon="8.802532">
        <ele>91.576574</ele>
        <time>2025-08-09T07:55:01.000Z</time>
      </trkpt>
      <trkpt lat="52.047720" lon="8.802443">
        <ele>91.519597</ele>
        <time>2025-08-09T07:55:02.515Z</time>
      </trkpt>
      <trkpt lat="52.047789" lon="8.802393">
        <ele>91.449589</ele>
        <time>2025-08-09T07:55:04.370Z</time>
      </trkpt>
      <trkpt lat="52.048429" lon="8.801309">
        <ele>90.567888</ele>
        <time>2025-08-09T07:55:24.566Z</time>
      </trkpt>
      <trkpt lat="52.048537" lon="8.801124">
        <ele>90.379504</ele>
        <time>2025-08-09T07:55:27.793Z</time>
      </trkpt>
      <trkpt lat="52.048662" lon="8.800913">
        <ele>90.163133</ele>
        <time>2025-08-09T07:55:31.582Z</time>
      </trkpt>
      <trkpt lat="52.048914" lon="8.801449">
        <ele>89.664855</ele>
        <time>2025-08-09T07:55:40.454Z</time>
      </trkpt>
      <trkpt lat="52.048946" lon="8.801517">
        <ele>89.601619</ele>
        <time>2025-08-09T07:55:41.640Z</time>
      </trkpt>
      <trkpt lat="52.048974" lon="8.801591">
        <ele>89.537452</ele>
        <time>2025-08-09T07:55:42.774Z</time>
      </trkpt>
      <trkpt lat="52.049122" lon="8.801951">
        <ele>89.217647</ele>
        <time>2025-08-09T07:55:48.776Z</time>
      </trkpt>
      <trkpt lat="52.049234" lon="8.802219">
        <ele>88.978347</ele>
        <time>2025-08-09T07:55:53.228Z</time>
      </trkpt>
      <trkpt lat="52.049331" lon="8.802449">
        <ele>88.772382</ele>
        <time>2025-08-09T07:55:57.045Z</time>
      </trkpt>
      <trkpt lat="52.049472" lon="8.802341">
        <ele>88.585212</ele>
        <time>2025-08-09T07:56:00.658Z</time>
      </trkpt>
      <trkpt lat="52.051061" lon="8.802417">
        <ele>90.255177</ele>
        <time>2025-08-09T07:56:51.758Z</time>
      </trkpt>
      <trkpt lat="52.052556" lon="8.802437">
        <ele>93.113877</ele>
        <time>2025-08-09T07:57:50.315Z</time>
      </trkpt>
      <trkpt lat="52.053190" lon="8.802420">
        <ele>94.357921</ele>
        <time>2025-08-09T07:58:13.943Z</time>
      </trkpt>
      <trkpt lat="52.053569" lon="8.802410">
        <ele>94.717776</ele>
        <time>2025-08-09T07:58:26.852Z</time>
      </trkpt>
      <trkpt lat="52.053678" lon="8.802459">
        <ele>94.825138</ele>
        <time>2025-08-09T07:58:30.667Z</time>
      </trkpt>
      <trkpt lat="52.053810" lon="8.801561">
        <ele>95.364145</ele>
        <time>2025-08-09T07:58:48.563Z</time>
      </trkpt>
      <trkpt lat="52.053782" lon="8.800770">
        <ele>95.826681</ele>
        <time>2025-08-09T07:59:02.697Z</time>
      </trkpt>
      <trkpt lat="52.053819" lon="8.800166">
        <ele>95.937101</ele>
        <time>2025-08-09T07:59:12.891Z</time>
      </trkpt>
      <trkpt lat="52.053935" lon="8.799051">
        <ele>95.694006</ele>
        <time>2025-08-09T07:59:32.030Z</time>
      </trkpt>
      <trkpt lat="52.053951" lon="8.798359">
        <ele>95.545144</ele>
        <time>2025-08-09T07:59:42.540Z</time>
      </trkpt>
      <trkpt lat="52.053919" lon="8.797678">
        <ele>95.398324</ele>
        <time>2025-08-09T07:59:52.265Z</time>
      </trkpt>
      <trkpt lat="52.053817" lon="8.796696">
        <ele>94.608105</ele>
        <time>2025-08-09T08:00:06.064Z</time>
      </trkpt>
      <trkpt lat="52.053803" lon="8.796548">
        <ele>94.478172</ele>
        <time>2025-08-09T08:00:08.109Z</time>
      </trkpt>
      <trkpt lat="52.053747" lon="8.795985">
        <ele>93.983294</ele>
        <time>2025-08-09T08:00:15.835Z</time>
      </trkpt>
      <trkpt lat="52.053649" lon="8.794991">
        <ele>93.109761</ele>
        <time>2025-08-09T08:00:29.403Z</time>
      </trkpt>
      <trkpt lat="52.053550" lon="8.793941">
        <ele>92.054835</ele>
        <time>2025-08-09T08:00:43.614Z</time>
      </trkpt>
      <trkpt lat="52.053337" lon="8.792808">
        <ele>90.815472</ele>
        <time>2025-08-09T08:00:59.303Z</time>
      </trkpt>
      <trkpt lat="52.053275" lon="8.792217">
        <ele>90.188304</ele>
        <time>2025-08-09T08:01:07.255Z</time>
      </trkpt>
      <trkpt lat="52.053177" lon="8.790717">
        <ele>88.668704</ele>
        <time>2025-08-09T08:01:27.308Z</time>
      </trkpt>
      <trkpt lat="52.053108" lon="8.789995">
        <ele>87.942627</ele>
        <time>2025-08-09T08:01:37.058Z</time>
      </trkpt>
      <trkpt lat="52.053044" lon="8.789579">
        <ele>87.516498</ele>
        <time>2025-08-09T08:01:42.801Z</time>
      </trkpt>
      <trkpt lat="52.052819" lon="8.788744">
        <ele>86.726572</ele>
        <time>2025-08-09T08:01:55.121Z</time>
      </trkpt>
      <trkpt lat="52.052535" lon="8.787908">
        <ele>86.202604</ele>
        <time>2025-08-09T08:02:08.361Z</time>
      </trkpt>
      <trkpt lat="52.052219" lon="8.787250">
        <ele>85.744579</ele>
        <time>2025-08-09T08:02:20.551Z</time>
      </trkpt>
      <trkpt lat="52.051945" lon="8.786594">
        <ele>85.309521</ele>
        <time>2025-08-09T08:02:32.771Z</time>
      </trkpt>
      <trkpt lat="52.051902" lon="8.786402">
        <ele>85.262663</ele>
        <time>2025-08-09T08:02:35.909Z</time>
      </trkpt>
      <trkpt lat="52.051889" lon="8.786128">
        <ele>85.257654</ele>
        <time>2025-08-09T08:02:40.153Z</time>
      </trkpt>
      <trkpt lat="52.051847" lon="8.786201">
        <ele>85.255832</ele>
        <time>2025-08-09T08:02:41.760Z</time>
      </trkpt>
      <trkpt lat="52.051748" lon="8.786387">
        <ele>85.251348</ele>
        <time>2025-08-09T08:02:45.787Z</time>
      </trkpt>
      <trkpt lat="52.051657" lon="8.786559">
        <ele>85.247213</ele>
        <time>2025-08-09T08:02:49.582Z</time>
      </trkpt>
      <trkpt lat="52.051488" lon="8.786819">
        <ele>85.240317</ele>
        <time>2025-08-09T08:02:55.964Z</time>
      </trkpt>
      <trkpt lat="52.051268" lon="8.787039">
        <ele>85.232663</ele>
        <time>2025-08-09T08:03:03.163Z</time>
      </trkpt>
      <trkpt lat="52.051221" lon="8.787087">
        <ele>85.231018</ele>
        <time>2025-08-09T08:03:04.772Z</time>
      </trkpt>
      <trkpt lat="52.051165" lon="8.787211">
        <ele>85.228214</ele>
        <time>2025-08-09T08:03:07.449Z</time>
      </trkpt>
      <trkpt lat="52.051083" lon="8.787252">
        <ele>85.225671</ele>
        <time>2025-08-09T08:03:09.964Z</time>
      </trkpt>
      <trkpt lat="52.050991" lon="8.787299">
        <ele>85.222813</ele>
        <time>2025-08-09T08:03:12.792Z</time>
      </trkpt>
      <trkpt lat="52.050883" lon="8.787259">
        <ele>85.219530</ele>
        <time>2025-08-09T08:03:15.911Z</time>
      </trkpt>
      <trkpt lat="52.050871" lon="8.787156">
        <ele>85.217619</ele>
        <time>2025-08-09T08:03:17.691Z</time>
      </trkpt>
      <trkpt lat="52.050858" lon="8.787046">
        <ele>85.215577</ele>
        <time>2025-08-09T08:03:19.480Z</time>
      </trkpt>
      <trkpt lat="52.050909" lon="8.787028">
        <ele>85.214031</ele>
        <time>2025-08-09T08:03:20.834Z</time>
      </trkpt>
      <trkpt lat="52.050949" lon="8.786970">
        <ele>85.212442</ele>
        <time>2025-08-09T08:03:22.229Z</time>
      </trkpt>
      <trkpt lat="52.050955" lon="8.786896">
        <ele>85.189936</ele>
        <time>2025-08-09T08:03:23.375Z</time>
      </trkpt>
      <trkpt lat="52.050935" lon="8.786842">
        <ele>85.141475</ele>
        <time>2025-08-09T08:03:24.328Z</time>
      </trkpt>
      <trkpt lat="52.050925" lon="8.786816">
        <ele>85.117899</ele>
        <time>2025-08-09T08:03:24.812Z</time>
      </trkpt>
      <trkpt lat="52.050785" lon="8.786737">
        <ele>84.932645</ele>
        <time>2025-08-09T08:03:28.467Z</time>
      </trkpt>
      <trkpt lat="52.050291" lon="8.786863">
        <ele>84.307536</ele>
        <time>2025-08-09T08:03:40.389Z</time>
      </trkpt>
      <trkpt lat="52.050064" lon="8.785576">
        <ele>83.278218</ele>
        <time>2025-08-09T08:03:58.333Z</time>
      </trkpt>
      <trkpt lat="52.050100" lon="8.784854">
        <ele>82.603060</ele>
        <time>2025-08-09T08:04:07.529Z</time>
      </trkpt>
      <trkpt lat="52.049886" lon="8.784819">
        <ele>82.202643</ele>
        <time>2025-08-09T08:04:11.979Z</time>
      </trkpt>
      <trkpt lat="52.049533" lon="8.784543">
        <ele>81.473434</ele>
        <time>2025-08-09T08:04:20.192Z</time>
      </trkpt>
      <trkpt lat="52.049432" lon="8.784441">
        <ele>81.252087</ele>
        <time>2025-08-09T08:04:22.714Z</time>
      </trkpt>
      <trkpt lat="52.049316" lon="8.784323">
        <ele>80.997351</ele>
        <time>2025-08-09T08:04:25.636Z</time>
      </trkpt>
      <trkpt lat="52.049293" lon="8.784281">
        <ele>80.932963</ele>
        <time>2025-08-09T08:04:26.369Z</time>
      </trkpt>
      <trkpt lat="52.049269" lon="8.784150">
        <ele>80.776464</ele>
        <time>2025-08-09T08:04:28.168Z</time>
      </trkpt>
      <trkpt lat="52.049303" lon="8.783988">
        <ele>80.580482</ele>
        <time>2025-08-09T08:04:30.451Z</time>
      </trkpt>
      <trkpt lat="52.049355" lon="8.783893">
        <ele>80.434872</ele>
        <time>2025-08-09T08:04:32.167Z</time>
      </trkpt>
      <trkpt lat="52.049580" lon="8.783484">
        <ele>79.806585</ele>
        <time>2025-08-09T08:04:39.513Z</time>
      </trkpt>
      <trkpt lat="52.049605" lon="8.783397">
        <ele>79.696640</ele>
        <time>2025-08-09T08:04:40.776Z</time>
      </trkpt>
      <trkpt lat="52.049731" lon="8.783099">
        <ele>79.429316</ele>
        <time>2025-08-09T08:04:45.652Z</time>
      </trkpt>
      <trkpt lat="52.049879" lon="8.782584">
        <ele>79.066172</ele>
        <time>2025-08-09T08:04:53.429Z</time>
      </trkpt>
      <trkpt lat="52.050107" lon="8.781951">
        <ele>78.597544</ele>
        <time>2025-08-09T08:05:03.696Z</time>
      </trkpt>
      <trkpt lat="52.050477" lon="8.781047">
        <ele>77.903844</ele>
        <time>2025-08-09T08:05:19.559Z</time>
      </trkpt>
      <trkpt lat="52.050985" lon="8.779696">
        <ele>77.673463</ele>
        <time>2025-08-09T08:05:44.172Z</time>
      </trkpt>
      <trkpt lat="52.051497" lon="8.778173">
        <ele>77.583091</ele>
        <time>2025-08-09T08:06:13.404Z</time>
      </trkpt>
      <trkpt lat="52.051879" lon="8.776755">
        <ele>77.540728</ele>
        <time>2025-08-09T08:06:39.773Z</time>
      </trkpt>
      <trkpt lat="52.052106" lon="8.775691">
        <ele>77.509911</ele>
        <time>2025-08-09T08:06:57.502Z</time>
      </trkpt>
      <trkpt lat="52.052201" lon="8.775162">
        <ele>77.372473</ele>
        <time>2025-08-09T08:07:05.718Z</time>
      </trkpt>
      <trkpt lat="52.052363" lon="8.773977">
        <ele>77.007769</ele>
        <time>2025-08-09T08:07:23.987Z</time>
      </trkpt>
      <trkpt lat="52.052382" lon="8.773496">
        <ele>76.862964</ele>
        <time>2025-08-09T08:07:31.231Z</time>
      </trkpt>
      <trkpt lat="52.052582" lon="8.772703">
        <ele>76.648234</ele>
        <time>2025-08-09T08:07:44.069Z</time>
      </trkpt>
      <trkpt lat="52.052646" lon="8.772529">
        <ele>76.701113</ele>
        <time>2025-08-09T08:07:47.226Z</time>
      </trkpt>
      <trkpt lat="52.052686" lon="8.771877">
        <ele>76.872003</ele>
        <time>2025-08-09T08:07:57.724Z</time>
      </trkpt>
      <trkpt lat="52.052703" lon="8.771451">
        <ele>76.983340</ele>
        <time>2025-08-09T08:08:05.037Z</time>
      </trkpt>
      <trkpt lat="52.052712" lon="8.770329">
        <ele>77.275990</ele>
        <time>2025-08-09T08:08:25.359Z</time>
      </trkpt>
      <trkpt lat="52.052664" lon="8.768967">
        <ele>78.245566</ele>
        <time>2025-08-09T08:08:53.657Z</time>
      </trkpt>
      <trkpt lat="52.052491" lon="8.766835">
        <ele>80.163325</ele>
        <time>2025-08-09T08:09:40.031Z</time>
      </trkpt>
      <trkpt lat="52.052348" lon="8.765675">
        <ele>80.668460</ele>
        <time>2025-08-09T08:10:03.044Z</time>
      </trkpt>
      <trkpt lat="52.052268" lon="8.765023">
        <ele>80.952330</ele>
        <time>2025-08-09T08:10:14.923Z</time>
      </trkpt>
      <trkpt lat="52.051973" lon="8.765114">
        <ele>81.160808</ele>
        <time>2025-08-09T08:10:23.236Z</time>
      </trkpt>
      <trkpt lat="52.050668" lon="8.765268">
        <ele>81.414407</ele>
        <time>2025-08-09T08:10:57.499Z</time>
      </trkpt>
      <trkpt lat="52.050426" lon="8.765509">
        <ele>81.432313</ele>
        <time>2025-08-09T08:11:05.362Z</time>
      </trkpt>
      <trkpt lat="52.050187" lon="8.765780">
        <ele>81.450697</ele>
        <time>2025-08-09T08:11:13.659Z</time>
      </trkpt>
      <trkpt lat="52.050060" lon="8.765919">
        <ele>81.460357</ele>
        <time>2025-08-09T08:11:18.030Z</time>
      </trkpt>
      <trkpt lat="52.049745" lon="8.766200">
        <ele>81.330930</ele>
        <time>2025-08-09T08:11:29.116Z</time>
      </trkpt>
      <trkpt lat="52.049662" lon="8.766292">
        <ele>81.290452</ele>
        <time>2025-08-09T08:11:32.133Z</time>
      </trkpt>
      <trkpt lat="52.049627" lon="8.766373">
        <ele>81.265919</ele>
        <time>2025-08-09T08:11:33.969Z</time>
      </trkpt>
      <trkpt lat="52.049619" lon="8.766740">
        <ele>81.174913</ele>
        <time>2025-08-09T08:11:40.577Z</time>
      </trkpt>
      <trkpt lat="52.049625" lon="8.767099">
        <ele>81.085914</ele>
        <time>2025-08-09T08:11:46.871Z</time>
      </trkpt>
      <trkpt lat="52.049570" lon="8.767782">
        <ele>80.915209</ele>
        <time>2025-08-09T08:11:58.360Z</time>
      </trkpt>
      <trkpt lat="52.048690" lon="8.769803">
        <ele>80.117434</ele>
        <time>2025-08-09T08:12:37.348Z</time>
      </trkpt>
      <trkpt lat="52.048544" lon="8.770628">
        <ele>79.814871</ele>
        <time>2025-08-09T08:12:52.781Z</time>
      </trkpt>
      <trkpt lat="52.047807" lon="8.771325">
        <ele>80.139480</ele>
        <time>2025-08-09T08:13:21.421Z</time>
      </trkpt>
      <trkpt lat="52.047547" lon="8.771680">
        <ele>80.360637</ele>
        <time>2025-08-09T08:13:32.974Z</time>
      </trkpt>
      <trkpt lat="52.047436" lon="8.771874">
        <ele>80.466790</ele>
        <time>2025-08-09T08:13:38.376Z</time>
      </trkpt>
      <trkpt lat="52.047398" lon="8.771194">
        <ele>80.740332</ele>
        <time>2025-08-09T08:13:50.805Z</time>
      </trkpt>
      <trkpt lat="52.047342" lon="8.770178">
        <ele>81.070453</ele>
        <time>2025-08-09T08:14:08.956Z</time>
      </trkpt>
      <trkpt lat="52.047294" lon="8.769709">
        <ele>81.205620</ele>
        <time>2025-08-09T08:14:16.991Z</time>
      </trkpt>
      <trkpt lat="52.047111" lon="8.768664">
        <ele>81.514518</ele>
        <time>2025-08-09T08:14:36.039Z</time>
      </trkpt>
      <trkpt lat="52.046771" lon="8.767094">
        <ele>81.972563</ele>
        <time>2025-08-09T08:15:06.759Z</time>
      </trkpt>
      <trkpt lat="52.046698" lon="8.766510">
        <ele>82.132739</ele>
        <time>2025-08-09T08:15:17.516Z</time>
      </trkpt>
      <trkpt lat="52.046684" lon="8.765970">
        <ele>82.278009</ele>
        <time>2025-08-09T08:15:27.124Z</time>
      </trkpt>
      <trkpt lat="52.046710" lon="8.765420">
        <ele>82.426273</ele>
        <time>2025-08-09T08:15:36.618Z</time>
      </trkpt>
      <trkpt lat="52.046782" lon="8.764727">
        <ele>82.447390</ele>
        <time>2025-08-09T08:15:48.151Z</time>
      </trkpt>
      <trkpt lat="52.046794" lon="8.764605">
        <ele>82.433846</ele>
        <time>2025-08-09T08:15:50.115Z</time>
      </trkpt>
      <trkpt lat="52.046865" lon="8.763407">
        <ele>82.301912</ele>
        <time>2025-08-09T08:16:08.545Z</time>
      </trkpt>
      <trkpt lat="52.046921" lon="8.762454">
        <ele>82.196967</ele>
        <time>2025-08-09T08:16:23.487Z</time>
      </trkpt>
      <trkpt lat="52.047020" lon="8.761256">
        <ele>82.257738</ele>
        <time>2025-08-09T08:16:43.918Z</time>
      </trkpt>
      <trkpt lat="52.047090" lon="8.760777">
        <ele>82.297791</ele>
        <time>2025-08-09T08:16:52.541Z</time>
      </trkpt>
      <trkpt lat="52.044780" lon="8.760642">
        <ele>82.755804</ele>
        <time>2025-08-09T08:17:58.366Z</time>
      </trkpt>
      <trkpt lat="52.043999" lon="8.760596">
        <ele>83.207566</ele>
        <time>2025-08-09T08:18:21.780Z</time>
      </trkpt>
      <trkpt lat="52.043567" lon="8.760571">
        <ele>83.583300</ele>
        <time>2025-08-09T08:18:35.890Z</time>
      </trkpt>
      <trkpt lat="52.043385" lon="8.760375">
        <ele>83.773051</ele>
        <time>2025-08-09T08:18:43.043Z</time>
      </trkpt>
      <trkpt lat="52.043240" lon="8.760219">
        <ele>83.924182</ele>
        <time>2025-08-09T08:18:48.738Z</time>
      </trkpt>
      <trkpt lat="52.043015" lon="8.760184">
        <ele>84.120646</ele>
        <time>2025-08-09T08:18:56.057Z</time>
      </trkpt>
      <trkpt lat="52.042674" lon="8.760141">
        <ele>84.418806</ele>
        <time>2025-08-09T08:19:07.146Z</time>
      </trkpt>
      <trkpt lat="52.042475" lon="8.758667">
        <ele>85.280215</ele>
        <time>2025-08-09T08:19:45.049Z</time>
      </trkpt>
      <trkpt lat="52.042429" lon="8.758290">
        <ele>85.499606</ele>
        <time>2025-08-09T08:19:54.377Z</time>
      </trkpt>
      <trkpt lat="52.042511" lon="8.758302">
        <ele>85.576012</ele>
        <time>2025-08-09T08:19:56.808Z</time>
      </trkpt>
      <trkpt lat="52.042516" lon="8.758186">
        <ele>85.642389</ele>
        <time>2025-08-09T08:20:01.795Z</time>
      </trkpt>
      <trkpt lat="52.042320" lon="8.758159">
        <ele>85.824936</ele>
        <time>2025-08-09T08:20:07.626Z</time>
      </trkpt>
      <trkpt lat="52.042327" lon="8.757960">
        <ele>85.938714</ele>
        <time>2025-08-09T08:20:11.367Z</time>
      </trkpt>
      <trkpt lat="52.042265" lon="8.757695">
        <ele>86.090826</ele>
        <time>2025-08-09T08:20:16.494Z</time>
      </trkpt>
      <trkpt lat="52.042135" lon="8.757240">
        <ele>86.271202</ele>
        <time>2025-08-09T08:20:25.708Z</time>
      </trkpt>
      <trkpt lat="52.041759" lon="8.755952">
        <ele>86.783795</ele>
        <time>2025-08-09T08:20:51.222Z</time>
      </trkpt>
      <trkpt lat="52.041716" lon="8.755724">
        <ele>86.869537</ele>
        <time>2025-08-09T08:20:55.383Z</time>
      </trkpt>
      <trkpt lat="52.041659" lon="8.755109">
        <ele>87.093150</ele>
        <time>2025-08-09T08:21:06.166Z</time>
      </trkpt>
      <trkpt lat="52.041649" lon="8.754991">
        <ele>87.145887</ele>
        <time>2025-08-09T08:21:08.126Z</time>
      </trkpt>
      <trkpt lat="52.041637" lon="8.754878">
        <ele>87.226634</ele>
        <time>2025-08-09T08:21:10.295Z</time>
      </trkpt>
      <trkpt lat="52.041544" lon="8.753959">
        <ele>87.882455</ele>
        <time>2025-08-09T08:21:28.909Z</time>
      </trkpt>
      <trkpt lat="52.041496" lon="8.753380">
        <ele>88.293849</ele>
        <time>2025-08-09T08:21:41.474Z</time>
      </trkpt>
      <trkpt lat="52.041485" lon="8.753245">
        <ele>88.389741</ele>
        <time>2025-08-09T08:21:44.356Z</time>
      </trkpt>
      <trkpt lat="52.041458" lon="8.752930">
        <ele>88.613695</ele>
        <time>2025-08-09T08:21:51.281Z</time>
      </trkpt>
      <trkpt lat="52.041406" lon="8.752372">
        <ele>89.011101</ele>
        <time>2025-08-09T08:22:02.721Z</time>
      </trkpt>
      <trkpt lat="52.041372" lon="8.752026">
        <ele>89.230495</ele>
        <time>2025-08-09T08:22:09.229Z</time>
      </trkpt>
      <trkpt lat="52.041300" lon="8.751312">
        <ele>89.549447</ele>
        <time>2025-08-09T08:22:22.270Z</time>
      </trkpt>
      <trkpt lat="52.041141" lon="8.751318">
        <ele>89.663431</ele>
        <time>2025-08-09T08:22:26.890Z</time>
      </trkpt>
      <trkpt lat="52.040576" lon="8.751341">
        <ele>90.068484</ele>
        <time>2025-08-09T08:22:42.660Z</time>
      </trkpt>
      <trkpt lat="52.040334" lon="8.751346">
        <ele>90.241936</ele>
        <time>2025-08-09T08:22:49.472Z</time>
      </trkpt>
      <trkpt lat="52.040250" lon="8.749386">
        <ele>91.868476</ele>
        <time>2025-08-09T08:23:29.830Z</time>
      </trkpt>
      <trkpt lat="52.040129" lon="8.746262">
        <ele>94.148811</ele>
        <time>2025-08-09T08:24:38.516Z</time>
      </trkpt>
      <trkpt lat="52.040138" lon="8.745056">
        <ele>94.765149</ele>
        <time>2025-08-09T08:24:57.968Z</time>
      </trkpt>
      <trkpt lat="52.040134" lon="8.744665">
        <ele>94.491475</ele>
        <time>2025-08-09T08:25:03.548Z</time>
      </trkpt>
      <trkpt lat="52.040099" lon="8.740868">
        <ele>89.999447</ele>
        <time>2025-08-09T08:25:53.359Z</time>
      </trkpt>
      <trkpt lat="52.040050" lon="8.740173">
        <ele>88.858934</ele>
        <time>2025-08-09T08:26:01.988Z</time>
      </trkpt>
      <trkpt lat="52.040085" lon="8.739495">
        <ele>87.749670</ele>
        <time>2025-08-09T08:26:10.136Z</time>
      </trkpt>
      <trkpt lat="52.040173" lon="8.738487">
        <ele>86.133457</ele>
        <time>2025-08-09T08:26:26.655Z</time>
      </trkpt>
      <trkpt lat="52.040457" lon="8.738351">
        <ele>85.380322</ele>
        <time>2025-08-09T08:26:34.503Z</time>
      </trkpt>
      <trkpt lat="52.041043" lon="8.738330">
        <ele>83.889280</ele>
        <time>2025-08-09T08:26:50.658Z</time>
      </trkpt>
      <trkpt lat="52.041121" lon="8.738197">
        <ele>83.601743</ele>
        <time>2025-08-09T08:26:54.905Z</time>
      </trkpt>
      <trkpt lat="52.042268" lon="8.735082">
        <ele>81.262954</ele>
        <time>2025-08-09T08:28:27.052Z</time>
      </trkpt>
      <trkpt lat="52.042409" lon="8.734686">
        <ele>81.404878</ele>
        <time>2025-08-09T08:28:34.290Z</time>
      </trkpt>
      <trkpt lat="52.042483" lon="8.734483">
        <ele>81.478070</ele>
        <time>2025-08-09T08:28:40.661Z</time>
      </trkpt>
      <trkpt lat="52.043727" lon="8.731084">
        <ele>83.328807</ele>
        <time>2025-08-09T08:29:56.012Z</time>
      </trkpt>
      <trkpt lat="52.043781" lon="8.730887">
        <ele>83.470889</ele>
        <time>2025-08-09T08:30:00.395Z</time>
      </trkpt>
      <trkpt lat="52.043816" lon="8.730765">
        <ele>83.559572</ele>
        <time>2025-08-09T08:30:03.261Z</time>
      </trkpt>
      <trkpt lat="52.043864" lon="8.730486">
        <ele>83.750423</ele>
        <time>2025-08-09T08:30:09.370Z</time>
      </trkpt>
      <trkpt lat="52.043853" lon="8.730255">
        <ele>83.903053</ele>
        <time>2025-08-09T08:30:14.239Z</time>
      </trkpt>
      <trkpt lat="52.044497" lon="8.725212">
        <ele>88.311999</ele>
        <time>2025-08-09T08:32:01.716Z</time>
      </trkpt>
      <trkpt lat="52.044546" lon="8.724920">
        <ele>88.610570</ele>
        <time>2025-08-09T08:32:08.818Z</time>
      </trkpt>
      <trkpt lat="52.044567" lon="8.724802">
        <ele>88.731746</ele>
        <time>2025-08-09T08:32:11.720Z</time>
      </trkpt>
      <trkpt lat="52.044656" lon="8.724578">
        <ele>88.994806</ele>
        <time>2025-08-09T08:32:18.113Z</time>
      </trkpt>
      <trkpt lat="52.045278" lon="8.723608">
        <ele>90.076693</ele>
        <time>2025-08-09T08:32:51.409Z</time>
      </trkpt>
      <trkpt lat="52.045629" lon="8.723310">
        <ele>90.540994</ele>
        <time>2025-08-09T08:33:05.201Z</time>
      </trkpt>
      <trkpt lat="52.045816" lon="8.723152">
        <ele>90.788101</ele>
        <time>2025-08-09T08:33:11.979Z</time>
      </trkpt>
      <trkpt lat="52.046033" lon="8.722960">
        <ele>91.077782</ele>
        <time>2025-08-09T08:33:19.500Z</time>
      </trkpt>
      <trkpt lat="52.046090" lon="8.722873">
        <ele>91.169452</ele>
        <time>2025-08-09T08:33:21.661Z</time>
      </trkpt>
      <trkpt lat="52.046243" lon="8.722878">
        <ele>91.348891</ele>
        <time>2025-08-09T08:33:25.643Z</time>
      </trkpt>
      <trkpt lat="52.046808" lon="8.722744">
        <ele>91.046732</ele>
        <time>2025-08-09T08:33:38.936Z</time>
      </trkpt>
      <trkpt lat="52.046882" lon="8.722761">
        <ele>91.003250</ele>
        <time>2025-08-09T08:33:40.585Z</time>
      </trkpt>
      <trkpt lat="52.046938" lon="8.722674">
        <ele>90.958186</ele>
        <time>2025-08-09T08:33:42.329Z</time>
      </trkpt>
      <trkpt lat="52.047132" lon="8.722223">
        <ele>90.761248</ele>
        <time>2025-08-09T08:33:49.962Z</time>
      </trkpt>
      <trkpt lat="52.047263" lon="8.721723">
        <ele>90.566775</ele>
        <time>2025-08-09T08:33:57.889Z</time>
      </trkpt>
      <trkpt lat="52.047278" lon="8.721260">
        <ele>90.400871</ele>
        <time>2025-08-09T08:34:04.806Z</time>
      </trkpt>
      <trkpt lat="52.047303" lon="8.716385">
        <ele>91.319603</ele>
        <time>2025-08-09T08:35:31.268Z</time>
      </trkpt>
      <trkpt lat="52.047306" lon="8.715739">
        <ele>91.461872</ele>
        <time>2025-08-09T08:35:42.387Z</time>
      </trkpt>
      <trkpt lat="52.047324" lon="8.714914">
        <ele>91.674793</ele>
        <time>2025-08-09T08:35:56.383Z</time>
      </trkpt>
      <trkpt lat="52.047325" lon="8.714867">
        <ele>91.690405</ele>
        <time>2025-08-09T08:35:57.196Z</time>
      </trkpt>
      <trkpt lat="52.047369" lon="8.714268">
        <ele>91.890671</ele>
        <time>2025-08-09T08:36:07.694Z</time>
      </trkpt>
      <trkpt lat="52.047414" lon="8.713873">
        <ele>92.024030</ele>
        <time>2025-08-09T08:36:14.867Z</time>
      </trkpt>
      <trkpt lat="52.047446" lon="8.713757">
        <ele>92.066236</ele>
        <time>2025-08-09T08:36:17.162Z</time>
      </trkpt>
      <trkpt lat="52.047489" lon="8.713698">
        <ele>92.096606</ele>
        <time>2025-08-09T08:36:18.809Z</time>
      </trkpt>
      <trkpt lat="52.047434" lon="8.713576">
        <ele>92.146822</ele>
        <time>2025-08-09T08:36:21.668Z</time>
      </trkpt>
      <trkpt lat="52.047089" lon="8.713440">
        <ele>92.338443</ele>
        <time>2025-08-09T08:36:32.649Z</time>
      </trkpt>
      <trkpt lat="52.046716" lon="8.712984">
        <ele>92.607917</ele>
        <time>2025-08-09T08:36:47.326Z</time>
      </trkpt>
      <trkpt lat="52.046550" lon="8.712675">
        <ele>92.808603</ele>
        <time>2025-08-09T08:36:55.306Z</time>
      </trkpt>
      <trkpt lat="52.046135" lon="8.712012">
        <ele>93.271323</ele>
        <time>2025-08-09T08:37:13.745Z</time>
      </trkpt>
      <trkpt lat="52.045801" lon="8.711822">
        <ele>93.552750</ele>
        <time>2025-08-09T08:37:24.846Z</time>
      </trkpt>
      <trkpt lat="52.045631" lon="8.711653">
        <ele>93.711224</ele>
        <time>2025-08-09T08:37:31.077Z</time>
      </trkpt>
      <trkpt lat="52.045079" lon="8.710832">
        <ele>94.408399</ele>
        <time>2025-08-09T08:37:55.094Z</time>
      </trkpt>
      <trkpt lat="52.044437" lon="8.709499">
        <ele>95.498988</ele>
        <time>2025-08-09T08:38:28.846Z</time>
      </trkpt>
      <trkpt lat="52.043960" lon="8.708291">
        <ele>96.869192</ele>
        <time>2025-08-09T08:38:59.071Z</time>
      </trkpt>
      <trkpt lat="52.043829" lon="8.707761">
        <ele>97.531839</ele>
        <time>2025-08-09T08:39:13.376Z</time>
      </trkpt>
      <trkpt lat="52.043753" lon="8.707113">
        <ele>98.297135</ele>
        <time>2025-08-09T08:39:30.228Z</time>
      </trkpt>
      <trkpt lat="52.043675" lon="8.706443">
        <ele>99.088210</ele>
        <time>2025-08-09T08:39:46.448Z</time>
      </trkpt>
      <trkpt lat="52.043629" lon="8.706044">
        <ele>99.200918</ele>
        <time>2025-08-09T08:39:55.587Z</time>
      </trkpt>
      <trkpt lat="52.042060" lon="8.706559">
        <ele>98.604191</ele>
        <time>2025-08-09T08:40:34.676Z</time>
      </trkpt>
      <trkpt lat="52.042011" lon="8.706545">
        <ele>98.568148</ele>
        <time>2025-08-09T08:40:35.728Z</time>
      </trkpt>
      <trkpt lat="52.041728" lon="8.706421">
        <ele>97.963351</ele>
        <time>2025-08-09T08:40:41.683Z</time>
      </trkpt>
      <trkpt lat="52.041269" lon="8.706202">
        <ele>96.976275</ele>
        <time>2025-08-09T08:40:51.237Z</time>
      </trkpt>
      <trkpt lat="52.040427" lon="8.705769">
        <ele>95.153988</ele>
        <time>2025-08-09T08:41:09.536Z</time>
      </trkpt>
      <trkpt lat="52.040216" lon="8.705659">
        <ele>94.878889</ele>
        <time>2025-08-09T08:41:14.228Z</time>
      </trkpt>
      <trkpt lat="52.039779" lon="8.705567">
        <ele>94.883039</ele>
        <time>2025-08-09T08:41:24.155Z</time>
      </trkpt>
      <trkpt lat="52.039709" lon="8.705553">
        <ele>94.883703</ele>
        <time>2025-08-09T08:41:25.915Z</time>
      </trkpt>
      <trkpt lat="52.039269" lon="8.705483">
        <ele>94.887867</ele>
        <time>2025-08-09T08:41:39.166Z</time>
      </trkpt>
      <trkpt lat="52.038598" lon="8.705476">
        <ele>94.894187</ele>
        <time>2025-08-09T08:42:01.480Z</time>
      </trkpt>
      <trkpt lat="52.038212" lon="8.705685">
        <ele>94.955925</ele>
        <time>2025-08-09T08:42:15.004Z</time>
      </trkpt>
      <trkpt lat="52.037504" lon="8.706217">
        <ele>95.104253</ele>
        <time>2025-08-09T08:42:38.038Z</time>
      </trkpt>
      <trkpt lat="52.037043" lon="8.705783">
        <ele>95.205562</ele>
        <time>2025-08-09T08:42:51.491Z</time>
      </trkpt>
      <trkpt lat="52.037011" lon="8.705868">
        <ele>95.217220</ele>
        <time>2025-08-09T08:42:52.946Z</time>
      </trkpt>
      <trkpt lat="52.036987" lon="8.705941">
        <ele>95.226903</ele>
        <time>2025-08-09T08:42:54.206Z</time>
      </trkpt>
      <trkpt lat="52.036751" lon="8.705721">
        <ele>95.044747</ele>
        <time>2025-08-09T08:43:00.691Z</time>
      </trkpt>
      <trkpt lat="52.036674" lon="8.705743">
        <ele>94.975998</ele>
        <time>2025-08-09T08:43:02.588Z</time>
      </trkpt>
      <trkpt lat="52.036627" lon="8.705832">
        <ele>94.912547</ele>
        <time>2025-08-09T08:43:04.248Z</time>
      </trkpt>
      <trkpt lat="52.036579" lon="8.705790">
        <ele>94.864611</ele>
        <time>2025-08-09T08:43:05.551Z</time>
      </trkpt>
      <trkpt lat="52.036503" lon="8.705705">
        <ele>94.783489</ele>
        <time>2025-08-09T08:43:07.667Z</time>
      </trkpt>
      <trkpt lat="52.036546" lon="8.705602">
        <ele>94.716152</ele>
        <time>2025-08-09T08:43:09.505Z</time>
      </trkpt>
      <trkpt lat="52.036108" lon="8.705398">
        <ele>94.315493</ele>
        <time>2025-08-09T08:43:20.051Z</time>
      </trkpt>
      <trkpt lat="52.034618" lon="8.704962">
        <ele>92.964781</ele>
        <time>2025-08-09T08:43:55.090Z</time>
      </trkpt>
      <trkpt lat="52.034549" lon="8.704918">
        <ele>92.897720</ele>
        <time>2025-08-09T08:43:56.766Z</time>
      </trkpt>
      <trkpt lat="52.033572" lon="8.704303">
        <ele>92.061379</ele>
        <time>2025-08-09T08:44:21.017Z</time>
      </trkpt>
      <trkpt lat="52.032424" lon="8.703535">
        <ele>92.540455</ele>
        <time>2025-08-09T08:44:55.681Z</time>
      </trkpt>
      <trkpt lat="52.031674" lon="8.703239">
        <ele>93.119296</ele>
        <time>2025-08-09T08:45:21.494Z</time>
      </trkpt>
      <trkpt lat="52.028299" lon="8.702054">
        <ele>97.514013</ele>
        <time>2025-08-09T08:47:15.560Z</time>
      </trkpt>
      <trkpt lat="52.028201" lon="8.702058">
        <ele>97.594767</ele>
        <time>2025-08-09T08:47:18.512Z</time>
      </trkpt>
      <trkpt lat="52.027979" lon="8.702150">
        <ele>97.783494</ele>
        <time>2025-08-09T08:47:25.377Z</time>
      </trkpt>
      <trkpt lat="52.027124" lon="8.702873">
        <ele>98.577443</ele>
        <time>2025-08-09T08:47:54.040Z</time>
      </trkpt>
      <trkpt lat="52.026693" lon="8.700441">
        <ele>99.684988</ele>
        <time>2025-08-09T08:48:44.258Z</time>
      </trkpt>
      <trkpt lat="52.026641" lon="8.700496">
        <ele>99.727082</ele>
        <time>2025-08-09T08:48:46.163Z</time>
      </trkpt>
      <trkpt lat="52.026582" lon="8.700546">
        <ele>99.772227</ele>
        <time>2025-08-09T08:48:48.244Z</time>
      </trkpt>
      <trkpt lat="52.025291" lon="8.701771">
        <ele>99.303188</ele>
        <time>2025-08-09T08:49:28.448Z</time>
      </trkpt>
      <trkpt lat="52.024619" lon="8.702400">
        <ele>98.720595</ele>
        <time>2025-08-09T08:49:44.926Z</time>
      </trkpt>
      <trkpt lat="52.024352" lon="8.702599">
        <ele>98.759076</ele>
        <time>2025-08-09T08:49:51.038Z</time>
      </trkpt>
      <trkpt lat="52.024199" lon="8.702625">
        <ele>98.779229</ele>
        <time>2025-08-09T08:49:54.335Z</time>
      </trkpt>
      <trkpt lat="52.024109" lon="8.702587">
        <ele>98.791411</ele>
        <time>2025-08-09T08:49:56.421Z</time>
      </trkpt>
      <trkpt lat="52.024062" lon="8.702534">
        <ele>98.798905</ele>
        <time>2025-08-09T08:49:57.703Z</time>
      </trkpt>
      <trkpt lat="52.024038" lon="8.702506">
        <ele>98.802775</ele>
        <time>2025-08-09T08:49:58.385Z</time>
      </trkpt>
      <trkpt lat="52.023873" lon="8.702040">
        <ele>98.846116</ele>
        <time>2025-08-09T08:50:06.659Z</time>
      </trkpt>
      <trkpt lat="52.023792" lon="8.701895">
        <ele>98.861902</ele>
        <time>2025-08-09T08:50:10.092Z</time>
      </trkpt>
      <trkpt lat="52.023715" lon="8.701844">
        <ele>98.872795</ele>
        <time>2025-08-09T08:50:12.634Z</time>
      </trkpt>
      <trkpt lat="52.023511" lon="8.701833">
        <ele>98.899535</ele>
        <time>2025-08-09T08:50:19.222Z</time>
      </trkpt>
      <trkpt lat="52.022856" lon="8.702118">
        <ele>99.417766</ele>
        <time>2025-08-09T08:50:45.637Z</time>
      </trkpt>
      <trkpt lat="52.022733" lon="8.702024">
        <ele>99.666114</ele>
        <time>2025-08-09T08:50:51.174Z</time>
      </trkpt>
      <trkpt lat="52.022390" lon="8.701507">
        <ele>100.520895</ele>
        <time>2025-08-09T08:51:09.218Z</time>
      </trkpt>
      <trkpt lat="52.022242" lon="8.701389">
        <ele>100.822104</ele>
        <time>2025-08-09T08:51:14.922Z</time>
      </trkpt>
      <trkpt lat="52.022143" lon="8.701418">
        <ele>101.005906</ele>
        <time>2025-08-09T08:51:18.235Z</time>
      </trkpt>
      <trkpt lat="52.021414" lon="8.701727">
        <ele>102.445515</ele>
        <time>2025-08-09T08:51:42.666Z</time>
      </trkpt>
      <trkpt lat="52.021318" lon="8.701699">
        <ele>102.703490</ele>
        <time>2025-08-09T08:51:45.708Z</time>
      </trkpt>
      <trkpt lat="52.021093" lon="8.701474">
        <ele>103.402265</ele>
        <time>2025-08-09T08:51:53.911Z</time>
      </trkpt>
      <trkpt lat="52.020665" lon="8.702385">
        <ele>105.267798</ele>
        <time>2025-08-09T08:52:31.953Z</time>
      </trkpt>
      <trkpt lat="52.020335" lon="8.703060">
        <ele>106.670988</ele>
        <time>2025-08-09T08:53:05.844Z</time>
      </trkpt>
      <trkpt lat="52.019857" lon="8.703313">
        <ele>108.907019</ele>
        <time>2025-08-09T08:53:39.655Z</time>
      </trkpt>
      <trkpt lat="52.018807" lon="8.703842">
        <ele>114.445514</ele>
        <time>2025-08-09T08:54:56.720Z</time>
      </trkpt>
      <trkpt lat="52.018288" lon="8.704214">
        <ele>116.853493</ele>
        <time>2025-08-09T08:55:36.651Z</time>
      </trkpt>
      <trkpt lat="52.018090" lon="8.704381">
        <ele>117.570482</ele>
        <time>2025-08-09T08:55:51.719Z</time>
      </trkpt>
      <trkpt lat="52.017855" lon="8.704578">
        <ele>118.420358</ele>
        <time>2025-08-09T08:56:08.914Z</time>
      </trkpt>
      <trkpt lat="52.017323" lon="8.705016">
        <ele>120.337154</ele>
        <time>2025-08-09T08:56:39.471Z</time>
      </trkpt>
      <trkpt lat="52.017223" lon="8.705060">
        <ele>120.670128</ele>
        <time>2025-08-09T08:56:44.237Z</time>
      </trkpt>
      <trkpt lat="52.017189" lon="8.705099">
        <ele>120.803888</ele>
        <time>2025-08-09T08:56:46.173Z</time>
      </trkpt>
      <trkpt lat="52.016351" lon="8.705736">
        <ele>121.553706</ele>
        <time>2025-08-09T08:57:19.900Z</time>
      </trkpt>
      <trkpt lat="52.016176" lon="8.705883">
        <ele>121.459531</ele>
        <time>2025-08-09T08:57:25.977Z</time>
      </trkpt>
      <trkpt lat="52.016139" lon="8.705948">
        <ele>121.433482</ele>
        <time>2025-08-09T08:57:27.649Z</time>
      </trkpt>
      <trkpt lat="52.016089" lon="8.705902">
        <ele>121.406015</ele>
        <time>2025-08-09T08:57:28.973Z</time>
      </trkpt>
      <trkpt lat="52.016034" lon="8.705903">
        <ele>121.379721</ele>
        <time>2025-08-09T08:57:30.233Z</time>
      </trkpt>
      <trkpt lat="52.015986" lon="8.705950">
        <ele>121.352931</ele>
        <time>2025-08-09T08:57:31.505Z</time>
      </trkpt>
      <trkpt lat="52.015957" lon="8.706053">
        <ele>121.319607</ele>
        <time>2025-08-09T08:57:33.148Z</time>
      </trkpt>
      <trkpt lat="52.015867" lon="8.706134">
        <ele>121.270424</ele>
        <time>2025-08-09T08:57:35.528Z</time>
      </trkpt>
      <trkpt lat="52.015766" lon="8.706248">
        <ele>121.211636</ele>
        <time>2025-08-09T08:57:38.542Z</time>
      </trkpt>
      <trkpt lat="52.015553" lon="8.706421">
        <ele>121.097801</ele>
        <time>2025-08-09T08:57:44.037Z</time>
      </trkpt>
      <trkpt lat="52.015357" lon="8.706640">
        <ele>120.984089</ele>
        <time>2025-08-09T08:57:49.342Z</time>
      </trkpt>
      <trkpt lat="52.015553" lon="8.706421">
        <ele>120.712818</ele>
        <time>2025-08-09T08:57:54.658Z</time>
      </trkpt>
      <trkpt lat="52.015766" lon="8.706248">
        <ele>120.438011</ele>
        <time>2025-08-09T08:58:00.120Z</time>
      </trkpt>
      <trkpt lat="52.015891" lon="8.706230">
        <ele>120.293192</ele>
        <time>2025-08-09T08:58:03.056Z</time>
      </trkpt>
      <trkpt lat="52.015867" lon="8.706134">
        <ele>120.219598</ele>
        <time>2025-08-09T08:58:04.522Z</time>
      </trkpt>
      <trkpt lat="52.015845" lon="8.706056">
        <ele>120.158659</ele>
        <time>2025-08-09T08:58:05.802Z</time>
      </trkpt>
      <trkpt lat="52.015484" lon="8.706311">
        <ele>119.704389</ele>
        <time>2025-08-09T08:58:15.250Z</time>
      </trkpt>
      <trkpt lat="52.015199" lon="8.706708">
        <ele>119.271169</ele>
        <time>2025-08-09T08:58:23.964Z</time>
      </trkpt>
      <trkpt lat="52.014610" lon="8.707633">
        <ele>117.969926</ele>
        <time>2025-08-09T08:58:41.480Z</time>
      </trkpt>
      <trkpt lat="52.014348" lon="8.707669">
        <ele>117.480381</ele>
        <time>2025-08-09T08:58:47.041Z</time>
      </trkpt>
      <trkpt lat="52.014315" lon="8.707752">
        <ele>117.367152</ele>
        <time>2025-08-09T08:58:48.340Z</time>
      </trkpt>
      <trkpt lat="52.014286" lon="8.707832">
        <ele>117.260761</ele>
        <time>2025-08-09T08:58:49.524Z</time>
      </trkpt>
      <trkpt lat="52.014259" lon="8.707917">
        <ele>117.151152</ele>
        <time>2025-08-09T08:58:50.766Z</time>
      </trkpt>
      <trkpt lat="52.014283" lon="8.707972">
        <ele>117.073894</ele>
        <time>2025-08-09T08:58:51.639Z</time>
      </trkpt>
      <trkpt lat="52.014284" lon="8.708123">
        <ele>116.900852</ele>
        <time>2025-08-09T08:58:53.573Z</time>
      </trkpt>
      <trkpt lat="52.014053" lon="8.708542">
        <ele>116.256257</ele>
        <time>2025-08-09T08:59:00.800Z</time>
      </trkpt>
      <trkpt lat="52.013703" lon="8.708891">
        <ele>115.497951</ele>
        <time>2025-08-09T08:59:09.434Z</time>
      </trkpt>
      <trkpt lat="52.013113" lon="8.709326">
        <ele>114.406964</ele>
        <time>2025-08-09T08:59:23.977Z</time>
      </trkpt>
      <trkpt lat="52.012897" lon="8.709624">
        <ele>113.929812</ele>
        <time>2025-08-09T08:59:30.201Z</time>
      </trkpt>
      <trkpt lat="52.012743" lon="8.710122">
        <ele>113.352205</ele>
        <time>2025-08-09T08:59:37.669Z</time>
      </trkpt>
      <trkpt lat="52.012717" lon="8.710204">
        <ele>113.256606</ele>
        <time>2025-08-09T08:59:38.895Z</time>
      </trkpt>
      <trkpt lat="52.012720" lon="8.710289">
        <ele>113.168368</ele>
        <time>2025-08-09T08:59:39.999Z</time>
      </trkpt>
      <trkpt lat="52.012750" lon="8.710436">
        <ele>113.007860</ele>
        <time>2025-08-09T08:59:42.045Z</time>
      </trkpt>
      <trkpt lat="52.012812" lon="8.710477">
        <ele>112.895144</ele>
        <time>2025-08-09T08:59:43.463Z</time>
      </trkpt>
      <trkpt lat="52.012820" lon="8.710725">
        <ele>112.637765</ele>
        <time>2025-08-09T08:59:46.704Z</time>
      </trkpt>
      <trkpt lat="52.012865" lon="8.710983">
        <ele>112.371240</ele>
        <time>2025-08-09T08:59:50.212Z</time>
      </trkpt>
      <trkpt lat="52.013121" lon="8.712322">
        <ele>111.016194</ele>
        <time>2025-08-09T09:00:08.300Z</time>
      </trkpt>
      <trkpt lat="52.013228" lon="8.712674">
        <ele>110.636784</ele>
        <time>2025-08-09T09:00:13.496Z</time>
      </trkpt>
      <trkpt lat="52.013348" lon="8.712955">
        <ele>110.306252</ele>
        <time>2025-08-09T09:00:18.190Z</time>
      </trkpt>
      <trkpt lat="52.013923" lon="8.713877">
        <ele>109.199774</ele>
        <time>2025-08-09T09:00:38.005Z</time>
      </trkpt>
      <trkpt lat="52.014451" lon="8.714722">
        <ele>108.318905</ele>
        <time>2025-08-09T09:00:55.561Z</time>
      </trkpt>
      <trkpt lat="52.014722" lon="8.715176">
        <ele>107.856255</ele>
        <time>2025-08-09T09:01:03.939Z</time>
      </trkpt>
      <trkpt lat="52.014817" lon="8.715472">
        <ele>107.612054</ele>
        <time>2025-08-09T09:01:08.252Z</time>
      </trkpt>
      <trkpt lat="52.014835" lon="8.715841">
        <ele>107.463695</ele>
        <time>2025-08-09T09:01:12.954Z</time>
      </trkpt>
      <trkpt lat="52.014784" lon="8.716211">
        <ele>107.337024</ele>
        <time>2025-08-09T09:01:17.794Z</time>
      </trkpt>
      <trkpt lat="52.014390" lon="8.717211">
        <ele>106.940351</ele>
        <time>2025-08-09T09:01:33.734Z</time>
      </trkpt>
      <trkpt lat="52.014285" lon="8.717327">
        <ele>106.871428</ele>
        <time>2025-08-09T09:01:36.952Z</time>
      </trkpt>
      <trkpt lat="52.013966" lon="8.717487">
        <ele>106.690208</ele>
        <time>2025-08-09T09:01:46.860Z</time>
      </trkpt>
      <trkpt lat="52.010429" lon="8.719149">
        <ele>115.724609</ele>
        <time>2025-08-09T09:04:15.295Z</time>
      </trkpt>
      <trkpt lat="52.010252" lon="8.719274">
        <ele>116.045644</ele>
        <time>2025-08-09T09:04:22.121Z</time>
      </trkpt>
      <trkpt lat="52.010183" lon="8.719469">
        <ele>116.137562</ele>
        <time>2025-08-09T09:04:26.898Z</time>
      </trkpt>
      <trkpt lat="52.010157" lon="8.719637">
        <ele>116.208354</ele>
        <time>2025-08-09T09:04:30.510Z</time>
      </trkpt>
      <trkpt lat="52.009999" lon="8.721258">
        <ele>116.879046</ele>
        <time>2025-08-09T09:05:00.993Z</time>
      </trkpt>
      <trkpt lat="52.009863" lon="8.722643">
        <ele>116.564216</ele>
        <time>2025-08-09T09:05:22.221Z</time>
      </trkpt>
      <trkpt lat="52.009588" lon="8.725737">
        <ele>113.551301</ele>
        <time>2025-08-09T09:06:03.249Z</time>
      </trkpt>
      <trkpt lat="52.009660" lon="8.726780">
        <ele>112.403555</ele>
        <time>2025-08-09T09:06:17.010Z</time>
      </trkpt>
      <trkpt lat="52.009823" lon="8.729177">
        <ele>109.921274</ele>
        <time>2025-08-09T09:06:49.400Z</time>
      </trkpt>
      <trkpt lat="52.010013" lon="8.730884">
        <ele>108.158654</ele>
        <time>2025-08-09T09:07:12.748Z</time>
      </trkpt>
      <trkpt lat="52.009953" lon="8.731279">
        <ele>107.658713</ele>
        <time>2025-08-09T09:07:18.161Z</time>
      </trkpt>
      <trkpt lat="52.009842" lon="8.731683">
        <ele>107.115061</ele>
        <time>2025-08-09T09:07:24.008Z</time>
      </trkpt>
      <trkpt lat="52.009386" lon="8.732990">
        <ele>105.268937</ele>
        <time>2025-08-09T09:07:43.447Z</time>
      </trkpt>
      <trkpt lat="52.009284" lon="8.733424">
        <ele>104.628744</ele>
        <time>2025-08-09T09:07:49.324Z</time>
      </trkpt>
      <trkpt lat="52.009303" lon="8.733903">
        <ele>103.764651</ele>
        <time>2025-08-09T09:07:55.342Z</time>
      </trkpt>
      <trkpt lat="52.009366" lon="8.734191">
        <ele>103.214421</ele>
        <time>2025-08-09T09:07:59.167Z</time>
      </trkpt>
      <trkpt lat="52.009450" lon="8.734454">
        <ele>102.681022</ele>
        <time>2025-08-09T09:08:02.858Z</time>
      </trkpt>
      <trkpt lat="52.009831" lon="8.735296">
        <ele>100.799742</ele>
        <time>2025-08-09T09:08:15.434Z</time>
      </trkpt>
      <trkpt lat="52.010179" lon="8.735919">
        <ele>99.362260</ele>
        <time>2025-08-09T09:08:25.343Z</time>
      </trkpt>
      <trkpt lat="52.010346" lon="8.736391">
        <ele>98.632504</ele>
        <time>2025-08-09T09:08:31.923Z</time>
      </trkpt>
      <trkpt lat="52.010449" lon="8.736899">
        <ele>97.915579</ele>
        <time>2025-08-09T09:08:38.559Z</time>
      </trkpt>
      <trkpt lat="52.010475" lon="8.737063">
        <ele>97.688577</ele>
        <time>2025-08-09T09:08:40.702Z</time>
      </trkpt>
      <trkpt lat="52.010545" lon="8.737975">
        <ele>96.456650</ele>
        <time>2025-08-09T09:08:52.236Z</time>
      </trkpt>
      <trkpt lat="52.010635" lon="8.738737">
        <ele>95.860920</ele>
        <time>2025-08-09T09:09:03.528Z</time>
      </trkpt>
      <trkpt lat="52.010754" lon="8.739414">
        <ele>96.572959</ele>
        <time>2025-08-09T09:09:16.717Z</time>
      </trkpt>
      <trkpt lat="52.010761" lon="8.739455">
        <ele>96.615989</ele>
        <time>2025-08-09T09:09:17.545Z</time>
      </trkpt>
      <trkpt lat="52.010773" lon="8.739533">
        <ele>96.697299</ele>
        <time>2025-08-09T09:09:19.192Z</time>
      </trkpt>
      <trkpt lat="52.010793" lon="8.739683">
        <ele>96.852516</ele>
        <time>2025-08-09T09:09:22.402Z</time>
      </trkpt>
      <trkpt lat="52.010806" lon="8.739932">
        <ele>97.105240</ele>
        <time>2025-08-09T09:09:27.796Z</time>
      </trkpt>
      <trkpt lat="52.010796" lon="8.740280">
        <ele>97.457564</ele>
        <time>2025-08-09T09:09:35.641Z</time>
      </trkpt>
      <trkpt lat="52.010769" lon="8.740476">
        <ele>97.660687</ele>
        <time>2025-08-09T09:09:40.321Z</time>
      </trkpt>
      <trkpt lat="52.010706" lon="8.740735">
        <ele>97.942332</ele>
        <time>2025-08-09T09:09:47.009Z</time>
      </trkpt>
      <trkpt lat="52.010400" lon="8.741621">
        <ele>99.085268</ele>
        <time>2025-08-09T09:10:13.996Z</time>
      </trkpt>
      <trkpt lat="52.010184" lon="8.742186">
        <ele>99.983292</ele>
        <time>2025-08-09T09:10:31.434Z</time>
      </trkpt>
      <trkpt lat="52.009897" lon="8.743097">
        <ele>101.365069</ele>
        <time>2025-08-09T09:10:54.922Z</time>
      </trkpt>
      <trkpt lat="52.009818" lon="8.743438">
        <ele>101.857020</ele>
        <time>2025-08-09T09:11:02.290Z</time>
      </trkpt>
      <trkpt lat="52.009735" lon="8.743474">
        <ele>102.045463</ele>
        <time>2025-08-09T09:11:05.128Z</time>
      </trkpt>
      <trkpt lat="52.009704" lon="8.743559">
        <ele>102.178864</ele>
        <time>2025-08-09T09:11:07.019Z</time>
      </trkpt>
      <trkpt lat="52.009714" lon="8.743672">
        <ele>102.333006</ele>
        <time>2025-08-09T09:11:09.295Z</time>
      </trkpt>
      <trkpt lat="52.009764" lon="8.743743">
        <ele>102.478675</ele>
        <time>2025-08-09T09:11:11.313Z</time>
      </trkpt>
      <trkpt lat="52.009712" lon="8.743967">
        <ele>102.663205</ele>
        <time>2025-08-09T09:11:16.036Z</time>
      </trkpt>
      <trkpt lat="52.009613" lon="8.744241">
        <ele>102.834960</ele>
        <time>2025-08-09T09:11:22.212Z</time>
      </trkpt>
      <trkpt lat="52.009480" lon="8.744481">
        <ele>103.009535</ele>
        <time>2025-08-09T09:11:28.436Z</time>
      </trkpt>
      <trkpt lat="52.009380" lon="8.744605">
        <ele>103.120019</ele>
        <time>2025-08-09T09:11:32.250Z</time>
      </trkpt>
      <trkpt lat="52.008601" lon="8.745493">
        <ele>103.955792</ele>
        <time>2025-08-09T09:12:01.085Z</time>
      </trkpt>
      <trkpt lat="52.007811" lon="8.746392">
        <ele>104.322158</ele>
        <time>2025-08-09T09:12:31.688Z</time>
      </trkpt>
      <trkpt lat="52.007449" lon="8.746971">
        <ele>104.439679</ele>
        <time>2025-08-09T09:12:46.199Z</time>
      </trkpt>
      <trkpt lat="52.007270" lon="8.747377">
        <ele>104.510794</ele>
        <time>2025-08-09T09:12:54.092Z</time>
      </trkpt>
      <trkpt lat="52.007243" lon="8.747442">
        <ele>104.521961</ele>
        <time>2025-08-09T09:12:55.263Z</time>
      </trkpt>
      <trkpt lat="52.007204" lon="8.747393">
        <ele>104.533366</ele>
        <time>2025-08-09T09:12:56.446Z</time>
      </trkpt>
      <trkpt lat="52.007002" lon="8.747886">
        <ele>104.057704</ele>
        <time>2025-08-09T09:13:04.919Z</time>
      </trkpt>
      <trkpt lat="52.006823" lon="8.748542">
        <ele>103.045791</ele>
        <time>2025-08-09T09:13:14.346Z</time>
      </trkpt>
      <trkpt lat="52.006618" lon="8.749424">
        <ele>101.716270</ele>
        <time>2025-08-09T09:13:26.050Z</time>
      </trkpt>
      <trkpt lat="52.006475" lon="8.749810">
        <ele>101.080947</ele>
        <time>2025-08-09T09:13:31.499Z</time>
      </trkpt>
      <trkpt lat="52.006253" lon="8.750248">
        <ele>100.235470</ele>
        <time>2025-08-09T09:13:38.321Z</time>
      </trkpt>
      <trkpt lat="52.005993" lon="8.750634">
        <ele>99.206684</ele>
        <time>2025-08-09T09:13:45.167Z</time>
      </trkpt>
      <trkpt lat="52.005279" lon="8.751456">
        <ele>96.650576</ele>
        <time>2025-08-09T09:14:02.422Z</time>
      </trkpt>
      <trkpt lat="52.004910" lon="8.752037">
        <ele>95.182511</ele>
        <time>2025-08-09T09:14:12.795Z</time>
      </trkpt>
      <trkpt lat="52.004752" lon="8.752397">
        <ele>95.001362</ele>
        <time>2025-08-09T09:14:18.344Z</time>
      </trkpt>
      <trkpt lat="52.004619" lon="8.752786">
        <ele>94.819046</ele>
        <time>2025-08-09T09:14:24.079Z</time>
      </trkpt>
      <trkpt lat="52.004522" lon="8.753167">
        <ele>94.650117</ele>
        <time>2025-08-09T09:14:29.719Z</time>
      </trkpt>
      <trkpt lat="52.004430" lon="8.753856">
        <ele>94.361251</ele>
        <time>2025-08-09T09:14:40.447Z</time>
      </trkpt>
      <trkpt lat="52.004385" lon="8.754299">
        <ele>94.177287</ele>
        <time>2025-08-09T09:14:48.325Z</time>
      </trkpt>
      <trkpt lat="52.004361" lon="8.754498">
        <ele>94.094201</ele>
        <time>2025-08-09T09:14:52.191Z</time>
      </trkpt>
      <trkpt lat="52.004239" lon="8.755329">
        <ele>94.749156</ele>
        <time>2025-08-09T09:15:10.720Z</time>
      </trkpt>
      <trkpt lat="52.004100" lon="8.756309">
        <ele>95.987397</ele>
        <time>2025-08-09T09:15:35.784Z</time>
      </trkpt>
      <trkpt lat="52.004047" lon="8.756908">
        <ele>96.732499</ele>
        <time>2025-08-09T09:15:50.862Z</time>
      </trkpt>
      <trkpt lat="52.003882" lon="8.758379">
        <ele>97.527635</ele>
        <time>2025-08-09T09:16:21.206Z</time>
      </trkpt>
      <trkpt lat="52.003796" lon="8.758749">
        <ele>97.495427</ele>
        <time>2025-08-09T09:16:27.553Z</time>
      </trkpt>
      <trkpt lat="52.003490" lon="8.760060">
        <ele>97.381249</ele>
        <time>2025-08-09T09:16:47.717Z</time>
      </trkpt>
      <trkpt lat="52.003153" lon="8.761281">
        <ele>96.643963</ele>
        <time>2025-08-09T09:17:06.616Z</time>
      </trkpt>
      <trkpt lat="52.002723" lon="8.762715">
        <ele>95.522435</ele>
        <time>2025-08-09T09:17:28.780Z</time>
      </trkpt>
      <trkpt lat="52.002680" lon="8.763006">
        <ele>95.312013</ele>
        <time>2025-08-09T09:17:32.846Z</time>
      </trkpt>
      <trkpt lat="52.002323" lon="8.764372">
        <ele>94.908800</ele>
        <time>2025-08-09T09:17:54.223Z</time>
      </trkpt>
      <trkpt lat="52.002103" lon="8.765467">
        <ele>94.601482</ele>
        <time>2025-08-09T09:18:12.785Z</time>
      </trkpt>
      <trkpt lat="52.001946" lon="8.766089">
        <ele>94.568226</ele>
        <time>2025-08-09T09:18:25.046Z</time>
      </trkpt>
      <trkpt lat="52.001519" lon="8.767420">
        <ele>94.760819</ele>
        <time>2025-08-09T09:18:51.780Z</time>
      </trkpt>
      <trkpt lat="52.000865" lon="8.768903">
        <ele>94.980356</ele>
        <time>2025-08-09T09:19:21.109Z</time>
      </trkpt>
      <trkpt lat="52.000845" lon="8.769022">
        <ele>94.993864</ele>
        <time>2025-08-09T09:19:23.161Z</time>
      </trkpt>
      <trkpt lat="52.000700" lon="8.769368">
        <ele>95.039698</ele>
        <time>2025-08-09T09:19:30.180Z</time>
      </trkpt>
      <trkpt lat="52.000129" lon="8.770632">
        <ele>95.211381</ele>
        <time>2025-08-09T09:19:57.291Z</time>
      </trkpt>
      <trkpt lat="52.000099" lon="8.770642">
        <ele>95.218078</ele>
        <time>2025-08-09T09:19:58.160Z</time>
      </trkpt>
      <trkpt lat="51.997573" lon="8.776351">
        <ele>96.880458</ele>
        <time>2025-08-09T09:22:01.668Z</time>
      </trkpt>
      <trkpt lat="51.997404" lon="8.776746">
        <ele>97.021330</ele>
        <time>2025-08-09T09:22:10.593Z</time>
      </trkpt>
      <trkpt lat="51.997377" lon="8.776873">
        <ele>97.060679</ele>
        <time>2025-08-09T09:22:13.054Z</time>
      </trkpt>
      <trkpt lat="51.996835" lon="8.778110">
        <ele>97.448300</ele>
        <time>2025-08-09T09:22:40.084Z</time>
      </trkpt>
      <trkpt lat="51.996741" lon="8.778171">
        <ele>97.473634</ele>
        <time>2025-08-09T09:22:42.966Z</time>
      </trkpt>
      <trkpt lat="51.996637" lon="8.778196">
        <ele>97.499947</ele>
        <time>2025-08-09T09:22:45.949Z</time>
      </trkpt>
      <trkpt lat="51.996576" lon="8.778266">
        <ele>97.518640</ele>
        <time>2025-08-09T09:22:48.072Z</time>
      </trkpt>
      <trkpt lat="51.996577" lon="8.778519">
        <ele>97.557628</ele>
        <time>2025-08-09T09:22:52.419Z</time>
      </trkpt>
      <trkpt lat="51.995360" lon="8.780505">
        <ele>97.921775</ele>
        <time>2025-08-09T09:23:39.587Z</time>
      </trkpt>
      <trkpt lat="51.995376" lon="8.780598">
        <ele>97.930132</ele>
        <time>2025-08-09T09:23:41.316Z</time>
      </trkpt>
      <trkpt lat="51.995150" lon="8.780925">
        <ele>97.972676</ele>
        <time>2025-08-09T09:23:50.079Z</time>
      </trkpt>
      <trkpt lat="51.994898" lon="8.781289">
        <ele>98.020079</ele>
        <time>2025-08-09T09:23:59.528Z</time>
      </trkpt>
      <trkpt lat="51.994401" lon="8.781869">
        <ele>98.032805</ele>
        <time>2025-08-09T09:24:15.713Z</time>
      </trkpt>
      <trkpt lat="51.994713" lon="8.782595">
        <ele>97.800108</ele>
        <time>2025-08-09T09:24:29.483Z</time>
      </trkpt>
      <trkpt lat="51.994878" lon="8.782987">
        <ele>97.675305</ele>
        <time>2025-08-09T09:24:41.778Z</time>
      </trkpt>
      <trkpt lat="51.994903" lon="8.783049">
        <ele>97.655826</ele>
        <time>2025-08-09T09:24:43.253Z</time>
      </trkpt>
      <trkpt lat="51.994968" lon="8.783076">
        <ele>97.627187</ele>
        <time>2025-08-09T09:24:44.875Z</time>
      </trkpt>
      <trkpt lat="51.995452" lon="8.783879">
        <ele>97.331847</ele>
        <time>2025-08-09T09:25:01.438Z</time>
      </trkpt>
      <trkpt lat="51.995866" lon="8.784566">
        <ele>97.322065</ele>
        <time>2025-08-09T09:25:16.647Z</time>
      </trkpt>
      <trkpt lat="51.995764" lon="8.784754">
        <ele>97.322581</ele>
        <time>2025-08-09T09:25:20.731Z</time>
      </trkpt>
      <trkpt lat="51.995432" lon="8.785137">
        <ele>97.323942</ele>
        <time>2025-08-09T09:25:31.799Z</time>
      </trkpt>
      <trkpt lat="51.995352" lon="8.785228">
        <ele>97.324269</ele>
        <time>2025-08-09T09:25:34.502Z</time>
      </trkpt>
      <trkpt lat="51.995221" lon="8.785467">
        <ele>97.324928</ele>
        <time>2025-08-09T09:25:40.041Z</time>
      </trkpt>
      <trkpt lat="51.995123" lon="8.785646">
        <ele>97.325421</ele>
        <time>2025-08-09T09:25:44.272Z</time>
      </trkpt>
      <trkpt lat="51.995008" lon="8.785855">
        <ele>97.325998</ele>
        <time>2025-08-09T09:25:49.227Z</time>
      </trkpt>
      <trkpt lat="51.994454" lon="8.787051">
        <ele>97.658815</ele>
        <time>2025-08-09T09:26:15.157Z</time>
      </trkpt>
      <trkpt lat="51.994416" lon="8.787131">
        <ele>97.682774</ele>
        <time>2025-08-09T09:26:16.919Z</time>
      </trkpt>
      <trkpt lat="51.994340" lon="8.787296">
        <ele>97.731636</ele>
        <time>2025-08-09T09:26:20.541Z</time>
      </trkpt>
      <trkpt lat="51.993896" lon="8.788240">
        <ele>98.013320</ele>
        <time>2025-08-09T09:26:41.375Z</time>
      </trkpt>
      <trkpt lat="51.993819" lon="8.788402">
        <ele>98.139876</ele>
        <time>2025-08-09T09:26:44.903Z</time>
      </trkpt>
      <trkpt lat="51.993615" lon="8.788830">
        <ele>98.501221</ele>
        <time>2025-08-09T09:26:54.571Z</time>
      </trkpt>
      <trkpt lat="51.993559" lon="8.788916">
        <ele>98.584786</ele>
        <time>2025-08-09T09:26:56.905Z</time>
      </trkpt>
      <trkpt lat="51.993439" lon="8.788906">
        <ele>98.715066</ele>
        <time>2025-08-09T09:27:00.681Z</time>
      </trkpt>
      <trkpt lat="51.993341" lon="8.788976">
        <ele>98.831145</ele>
        <time>2025-08-09T09:27:04.988Z</time>
      </trkpt>
      <trkpt lat="51.993321" lon="8.789043">
        <ele>98.880855</ele>
        <time>2025-08-09T09:27:06.469Z</time>
      </trkpt>
      <trkpt lat="51.993348" lon="8.789108">
        <ele>98.933202</ele>
        <time>2025-08-09T09:27:08.012Z</time>
      </trkpt>
      <trkpt lat="51.993396" lon="8.789242">
        <ele>99.036700</ele>
        <time>2025-08-09T09:27:11.178Z</time>
      </trkpt>
      <trkpt lat="51.993438" lon="8.789319">
        <ele>99.105376</ele>
        <time>2025-08-09T09:27:13.799Z</time>
      </trkpt>
      <trkpt lat="51.993348" lon="8.789795">
        <ele>99.437809</ele>
        <time>2025-08-09T09:27:26.749Z</time>
      </trkpt>
      <trkpt lat="51.993148" lon="8.790756">
        <ele>100.141336</ele>
        <time>2025-08-09T09:27:47.992Z</time>
      </trkpt>
      <trkpt lat="51.992779" lon="8.791263">
        <ele>100.759730</ele>
        <time>2025-08-09T09:28:04.304Z</time>
      </trkpt>
      <trkpt lat="51.992512" lon="8.791529">
        <ele>101.160485</ele>
        <time>2025-08-09T09:28:14.668Z</time>
      </trkpt>
      <trkpt lat="51.992458" lon="8.791634">
        <ele>101.268262</ele>
        <time>2025-08-09T09:28:17.456Z</time>
      </trkpt>
      <trkpt lat="51.992766" lon="8.791845">
        <ele>101.695943</ele>
        <time>2025-08-09T09:28:28.339Z</time>
      </trkpt>
      <trkpt lat="51.992653" lon="8.792347">
        <ele>102.117019</ele>
        <time>2025-08-09T09:28:41.718Z</time>
      </trkpt>
      <trkpt lat="51.992590" lon="8.792628">
        <ele>102.299191</ele>
        <time>2025-08-09T09:28:49.168Z</time>
      </trkpt>
      <trkpt lat="51.992466" lon="8.793171">
        <ele>102.459629</ele>
        <time>2025-08-09T09:29:03.299Z</time>
      </trkpt>
      <trkpt lat="51.991851" lon="8.793098">
        <ele>102.737053</ele>
        <time>2025-08-09T09:29:27.561Z</time>
      </trkpt>
      <trkpt lat="51.991494" lon="8.792897">
        <ele>102.907044</ele>
        <time>2025-08-09T09:29:41.380Z</time>
      </trkpt>
      <trkpt lat="51.991333" lon="8.792806">
        <ele>102.983739</ele>
        <time>2025-08-09T09:29:47.199Z</time>
      </trkpt>
      <trkpt lat="51.991030" lon="8.792599">
        <ele>102.982738</ele>
        <time>2025-08-09T09:29:57.971Z</time>
      </trkpt>
      <trkpt lat="51.990964" lon="8.792557">
        <ele>102.923683</ele>
        <time>2025-08-09T09:30:00.233Z</time>
      </trkpt>
      <trkpt lat="51.990946" lon="8.792548">
        <ele>102.907993</ele>
        <time>2025-08-09T09:30:00.668Z</time>
      </trkpt>
      <trkpt lat="51.990881" lon="8.792511">
        <ele>102.850611</ele>
        <time>2025-08-09T09:30:02.259Z</time>
      </trkpt>
      <trkpt lat="51.990673" lon="8.792395">
        <ele>102.667395</ele>
        <time>2025-08-09T09:30:07.285Z</time>
      </trkpt>
      <trkpt lat="51.990604" lon="8.792357">
        <ele>102.606696</ele>
        <time>2025-08-09T09:30:08.934Z</time>
      </trkpt>
      <trkpt lat="51.990509" lon="8.792615">
        <ele>102.452481</ele>
        <time>2025-08-09T09:30:13.124Z</time>
      </trkpt>
      <trkpt lat="51.990482" lon="8.792689">
        <ele>102.408355</ele>
        <time>2025-08-09T09:30:14.330Z</time>
      </trkpt>
      <trkpt lat="51.990434" lon="8.792820">
        <ele>102.330153</ele>
        <time>2025-08-09T09:30:16.427Z</time>
      </trkpt>
      <trkpt lat="51.990414" lon="8.792890">
        <ele>102.290565</ele>
        <time>2025-08-09T09:30:19.754Z</time>
      </trkpt>
      <trkpt lat="51.990239" lon="8.792750">
        <ele>102.128042</ele>
        <time>2025-08-09T09:30:25.693Z</time>
      </trkpt>
      <trkpt lat="51.990159" lon="8.792691">
        <ele>102.054844</ele>
        <time>2025-08-09T09:30:27.686Z</time>
      </trkpt>
      <trkpt lat="51.989905" lon="8.792531">
        <ele>101.827876</ele>
        <time>2025-08-09T09:30:33.905Z</time>
      </trkpt>
      <trkpt lat="51.989595" lon="8.792335">
        <ele>101.596228</ele>
        <time>2025-08-09T09:30:42.066Z</time>
      </trkpt>
      <trkpt lat="51.989456" lon="8.792846">
        <ele>101.740683</ele>
        <time>2025-08-09T09:30:51.089Z</time>
      </trkpt>
      <trkpt lat="51.989123" lon="8.793104">
        <ele>101.895616</ele>
        <time>2025-08-09T09:31:01.364Z</time>
      </trkpt>
      <trkpt lat="51.989181" lon="8.793339">
        <ele>101.961083</ele>
        <time>2025-08-09T09:31:05.865Z</time>
      </trkpt>
      <trkpt lat="51.989284" lon="8.793758">
        <ele>102.077746</ele>
        <time>2025-08-09T09:31:14.210Z</time>
      </trkpt>
      <trkpt lat="51.989325" lon="8.793933">
        <ele>102.126163</ele>
        <time>2025-08-09T09:31:17.810Z</time>
      </trkpt>
      <trkpt lat="51.989156" lon="8.794784">
        <ele>102.364422</ele>
        <time>2025-08-09T09:31:35.605Z</time>
      </trkpt>
      <trkpt lat="51.989455" lon="8.794903">
        <ele>102.536781</ele>
        <time>2025-08-09T09:31:47.888Z</time>
      </trkpt>
      <trkpt lat="51.989699" lon="8.795048">
        <ele>102.682253</ele>
        <time>2025-08-09T09:31:57.873Z</time>
      </trkpt>
      <trkpt lat="51.989720" lon="8.795133">
        <ele>102.713829</ele>
        <time>2025-08-09T09:32:01.776Z</time>
      </trkpt>
      <trkpt lat="51.989569" lon="8.795546">
        <ele>102.879429</ele>
        <time>2025-08-09T09:32:22.339Z</time>
      </trkpt>
      <trkpt lat="51.989553" lon="8.795590">
        <ele>102.897047</ele>
        <time>2025-08-09T09:32:24.522Z</time>
      </trkpt>
      <trkpt lat="51.989482" lon="8.795724">
        <ele>102.957995</ele>
        <time>2025-08-09T09:32:32.092Z</time>
      </trkpt>
      <trkpt lat="51.989433" lon="8.796141">
        <ele>103.104362</ele>
        <time>2025-08-09T09:32:41.888Z</time>
      </trkpt>
      <trkpt lat="51.989399" lon="8.796260">
        <ele>103.149591</ele>
        <time>2025-08-09T09:32:44.231Z</time>
      </trkpt>
      <trkpt lat="51.989120" lon="8.797453">
        <ele>103.415175</ele>
        <time>2025-08-09T09:33:05.361Z</time>
      </trkpt>
      <trkpt lat="51.989090" lon="8.797554">
        <ele>103.426459</ele>
        <time>2025-08-09T09:33:07.179Z</time>
      </trkpt>
      <trkpt lat="51.989027" lon="8.797831">
        <ele>103.456175</ele>
        <time>2025-08-09T09:33:11.928Z</time>
      </trkpt>
      <trkpt lat="51.988942" lon="8.798273">
        <ele>103.502773</ele>
        <time>2025-08-09T09:33:19.537Z</time>
      </trkpt>
      <trkpt lat="51.988686" lon="8.799598">
        <ele>103.635986</ele>
        <time>2025-08-09T09:33:43.848Z</time>
      </trkpt>
      <trkpt lat="51.988395" lon="8.801118">
        <ele>103.598882</ele>
        <time>2025-08-09T09:34:10.713Z</time>
      </trkpt>
      <trkpt lat="51.988207" lon="8.802054">
        <ele>103.575932</ele>
        <time>2025-08-09T09:34:26.251Z</time>
      </trkpt>
      <trkpt lat="51.988059" lon="8.802928">
        <ele>103.537906</ele>
        <time>2025-08-09T09:34:40.080Z</time>
      </trkpt>
      <trkpt lat="51.988020" lon="8.803143">
        <ele>103.526520</ele>
        <time>2025-08-09T09:34:43.544Z</time>
      </trkpt>
      <trkpt lat="51.987984" lon="8.803368">
        <ele>103.514711</ele>
        <time>2025-08-09T09:34:47.325Z</time>
      </trkpt>
      <trkpt lat="51.987966" lon="8.803463">
        <ele>103.509662</ele>
        <time>2025-08-09T09:34:48.925Z</time>
      </trkpt>
      <trkpt lat="51.987878" lon="8.803928">
        <ele>103.484951</ele>
        <time>2025-08-09T09:34:56.947Z</time>
      </trkpt>
      <trkpt lat="51.987830" lon="8.804177">
        <ele>103.471697</ele>
        <time>2025-08-09T09:35:01.296Z</time>
      </trkpt>
      <trkpt lat="51.987782" lon="8.804402">
        <ele>103.459601</ele>
        <time>2025-08-09T09:35:05.332Z</time>
      </trkpt>
      <trkpt lat="51.987741" lon="8.804560">
        <ele>103.450892</ele>
        <time>2025-08-09T09:35:08.286Z</time>
      </trkpt>
      <trkpt lat="51.987534" lon="8.805703">
        <ele>103.841406</ele>
        <time>2025-08-09T09:35:30.096Z</time>
      </trkpt>
      <trkpt lat="51.988188" lon="8.805971">
        <ele>104.611348</ele>
        <time>2025-08-09T09:35:51.144Z</time>
      </trkpt>
      <trkpt lat="51.988228" lon="8.805987">
        <ele>104.658372</ele>
        <time>2025-08-09T09:35:52.495Z</time>
      </trkpt>
      <trkpt lat="51.988404" lon="8.806057">
        <ele>104.865213</ele>
        <time>2025-08-09T09:35:58.557Z</time>
      </trkpt>
      <trkpt lat="51.988685" lon="8.806171">
        <ele>105.195832</ele>
        <time>2025-08-09T09:36:08.757Z</time>
      </trkpt>
      <trkpt lat="51.988815" lon="8.806223">
        <ele>105.348662</ele>
        <time>2025-08-09T09:36:13.600Z</time>
      </trkpt>
      <trkpt lat="51.989902" lon="8.806660">
        <ele>107.032686</ele>
        <time>2025-08-09T09:36:54.364Z</time>
      </trkpt>
      <trkpt lat="51.989817" lon="8.807906">
        <ele>108.224007</ele>
        <time>2025-08-09T09:37:20.002Z</time>
      </trkpt>
      <trkpt lat="51.989744" lon="8.808960">
        <ele>108.478032</ele>
        <time>2025-08-09T09:37:37.843Z</time>
      </trkpt>
      <trkpt lat="51.989835" lon="8.808986">
        <ele>108.511192</ele>
        <time>2025-08-09T09:37:40.315Z</time>
      </trkpt>
      <trkpt lat="51.990248" lon="8.809415">
        <ele>108.687142</ele>
        <time>2025-08-09T09:37:53.423Z</time>
      </trkpt>
      <trkpt lat="51.991358" lon="8.810495">
        <ele>109.593657</ele>
        <time>2025-08-09T09:38:30.946Z</time>
      </trkpt>
      <trkpt lat="51.991457" lon="8.810523">
        <ele>109.691897</ele>
        <time>2025-08-09T09:38:34.299Z</time>
      </trkpt>
      <trkpt lat="51.991841" lon="8.810882">
        <ele>110.125057</ele>
        <time>2025-08-09T09:38:49.048Z</time>
      </trkpt>
      <trkpt lat="51.991939" lon="8.810989">
        <ele>110.240502</ele>
        <time>2025-08-09T09:38:53.029Z</time>
      </trkpt>
      <trkpt lat="51.992059" lon="8.811190">
        <ele>110.409032</ele>
        <time>2025-08-09T09:39:01.801Z</time>
      </trkpt>
      <trkpt lat="51.992145" lon="8.811091">
        <ele>110.512086</ele>
        <time>2025-08-09T09:39:05.364Z</time>
      </trkpt>
      <trkpt lat="51.992286" lon="8.810905">
        <ele>110.682999</ele>
        <time>2025-08-09T09:39:11.476Z</time>
      </trkpt>
      <trkpt lat="51.992383" lon="8.810787">
        <ele>110.779662</ele>
        <time>2025-08-09T09:39:15.558Z</time>
      </trkpt>
      <trkpt lat="51.992699" lon="8.810401">
        <ele>111.095033</ele>
        <time>2025-08-09T09:39:28.619Z</time>
      </trkpt>
      <trkpt lat="51.992742" lon="8.810515">
        <ele>111.160689</ele>
        <time>2025-08-09T09:39:31.955Z</time>
      </trkpt>
      <trkpt lat="51.992699" lon="8.810401">
        <ele>111.226346</ele>
        <time>2025-08-09T09:39:35.165Z</time>
      </trkpt>
      <trkpt lat="51.993015" lon="8.810056">
        <ele>111.530039</ele>
        <time>2025-08-09T09:39:46.960Z</time>
      </trkpt>
      <trkpt lat="51.993590" lon="8.809429">
        <ele>112.082432</ele>
        <time>2025-08-09T09:40:07.708Z</time>
      </trkpt>
      <trkpt lat="51.993715" lon="8.809293">
        <ele>112.253816</ele>
        <time>2025-08-09T09:40:12.228Z</time>
      </trkpt>
      <trkpt lat="51.994043" lon="8.808947">
        <ele>112.705817</ele>
        <time>2025-08-09T09:40:24.467Z</time>
      </trkpt>
      <trkpt lat="51.994518" lon="8.808429">
        <ele>113.367029</ele>
        <time>2025-08-09T09:40:43.573Z</time>
      </trkpt>
      <trkpt lat="51.994725" lon="8.808217">
        <ele>113.649845</ele>
        <time>2025-08-09T09:40:51.881Z</time>
      </trkpt>
      <trkpt lat="51.995300" lon="8.807707">
        <ele>114.454086</ele>
        <time>2025-08-09T09:41:15.220Z</time>
      </trkpt>
      <trkpt lat="51.995348" lon="8.807645">
        <ele>114.538850</ele>
        <time>2025-08-09T09:41:17.456Z</time>
      </trkpt>
      <trkpt lat="51.995434" lon="8.807536">
        <ele>114.689621</ele>
        <time>2025-08-09T09:41:21.473Z</time>
      </trkpt>
      <trkpt lat="51.995735" lon="8.806983">
        <ele>115.317733</ele>
        <time>2025-08-09T09:41:38.311Z</time>
      </trkpt>
      <trkpt lat="51.996222" lon="8.808420">
        <ele>116.613969</ele>
        <time>2025-08-09T09:42:13.015Z</time>
      </trkpt>
      <trkpt lat="51.996580" lon="8.809477">
        <ele>115.966244</ele>
        <time>2025-08-09T09:42:33.534Z</time>
      </trkpt>
      <trkpt lat="51.996833" lon="8.810274">
        <ele>115.484794</ele>
        <time>2025-08-09T09:42:46.463Z</time>
      </trkpt>
      <trkpt lat="51.996995" lon="8.810763">
        <ele>115.186648</ele>
        <time>2025-08-09T09:42:53.971Z</time>
      </trkpt>
      <trkpt lat="51.997077" lon="8.810751">
        <ele>115.114852</ele>
        <time>2025-08-09T09:42:55.653Z</time>
      </trkpt>
      <trkpt lat="51.997132" lon="8.810849">
        <ele>114.960482</ele>
        <time>2025-08-09T09:42:57.316Z</time>
      </trkpt>
      <trkpt lat="51.997329" lon="8.811432">
        <ele>113.867823</ele>
        <time>2025-08-09T09:43:05.499Z</time>
      </trkpt>
      <trkpt lat="51.998213" lon="8.814058">
        <ele>108.965753</ele>
        <time>2025-08-09T09:43:42.439Z</time>
      </trkpt>
      <trkpt lat="51.998285" lon="8.814162">
        <ele>108.711569</ele>
        <time>2025-08-09T09:43:44.397Z</time>
      </trkpt>
      <trkpt lat="51.998331" lon="8.814416">
        <ele>108.281545</ele>
        <time>2025-08-09T09:43:47.693Z</time>
      </trkpt>
      <trkpt lat="51.999111" lon="8.816693">
        <ele>104.046259</ele>
        <time>2025-08-09T09:44:20.232Z</time>
      </trkpt>
      <trkpt lat="52.000755" lon="8.821571">
        <ele>95.592290</ele>
        <time>2025-08-09T09:45:29.174Z</time>
      </trkpt>
      <trkpt lat="52.000851" lon="8.821711">
        <ele>95.455430</ele>
        <time>2025-08-09T09:45:31.826Z</time>
      </trkpt>
      <trkpt lat="52.000899" lon="8.821946">
        <ele>95.293729</ele>
        <time>2025-08-09T09:45:35.049Z</time>
      </trkpt>
      <trkpt lat="52.001236" lon="8.822931">
        <ele>94.557782</ele>
        <time>2025-08-09T09:45:51.304Z</time>
      </trkpt>
      <trkpt lat="52.001313" lon="8.823099">
        <ele>94.420998</ele>
        <time>2025-08-09T09:45:54.798Z</time>
      </trkpt>
      <trkpt lat="52.001366" lon="8.823265">
        <ele>94.298876</ele>
        <time>2025-08-09T09:45:58.054Z</time>
      </trkpt>
      <trkpt lat="52.001412" lon="8.823400">
        <ele>94.198107</ele>
        <time>2025-08-09T09:46:00.826Z</time>
      </trkpt>
      <trkpt lat="52.001811" lon="8.824634">
        <ele>94.788867</ele>
        <time>2025-08-09T09:46:28.373Z</time>
      </trkpt>
      <trkpt lat="52.002239" lon="8.825946">
        <ele>95.612819</ele>
        <time>2025-08-09T09:46:58.625Z</time>
      </trkpt>
      <trkpt lat="52.003664" lon="8.830155">
        <ele>95.945529</ele>
        <time>2025-08-09T09:48:15.734Z</time>
      </trkpt>
      <trkpt lat="52.003741" lon="8.830287">
        <ele>95.967618</ele>
        <time>2025-08-09T09:48:18.850Z</time>
      </trkpt>
      <trkpt lat="52.003779" lon="8.830511">
        <ele>95.995841</ele>
        <time>2025-08-09T09:48:22.870Z</time>
      </trkpt>
      <trkpt lat="52.004206" lon="8.831791">
        <ele>96.704896</ele>
        <time>2025-08-09T09:48:49.830Z</time>
      </trkpt>
      <trkpt lat="52.004594" lon="8.832852">
        <ele>97.887522</ele>
        <time>2025-08-09T09:49:16.311Z</time>
      </trkpt>
      <trkpt lat="52.004735" lon="8.833289">
        <ele>98.360332</ele>
        <time>2025-08-09T09:49:27.362Z</time>
      </trkpt>
      <trkpt lat="52.004835" lon="8.833381">
        <ele>98.539233</ele>
        <time>2025-08-09T09:49:31.627Z</time>
      </trkpt>
      <trkpt lat="52.004819" lon="8.833597">
        <ele>98.747717</ele>
        <time>2025-08-09T09:49:36.596Z</time>
      </trkpt>
      <trkpt lat="52.004885" lon="8.833802">
        <ele>98.977518</ele>
        <time>2025-08-09T09:49:41.930Z</time>
      </trkpt>
      <trkpt lat="52.004973" lon="8.834074">
        <ele>99.304213</ele>
        <time>2025-08-09T09:49:49.004Z</time>
      </trkpt>
      <trkpt lat="52.005721" lon="8.836270">
        <ele>101.972549</ele>
        <time>2025-08-09T09:50:43.813Z</time>
      </trkpt>
      <trkpt lat="52.007684" lon="8.842123">
        <ele>103.839279</ele>
        <time>2025-08-09T09:52:42.523Z</time>
      </trkpt>
      <trkpt lat="52.009254" lon="8.846744">
        <ele>102.535362</ele>
        <time>2025-08-09T09:54:03.209Z</time>
      </trkpt>
      <trkpt lat="52.009282" lon="8.846857">
        <ele>102.461250</ele>
        <time>2025-08-09T09:54:04.902Z</time>
      </trkpt>
      <trkpt lat="52.009368" lon="8.847165">
        <ele>102.255483</ele>
        <time>2025-08-09T09:54:09.724Z</time>
      </trkpt>
      <trkpt lat="52.009528" lon="8.847624">
        <ele>101.934554</ele>
        <time>2025-08-09T09:54:17.145Z</time>
      </trkpt>
      <trkpt lat="52.010052" lon="8.849132">
        <ele>100.883724</ele>
        <time>2025-08-09T09:54:41.271Z</time>
      </trkpt>
      <trkpt lat="52.010479" lon="8.850022">
        <ele>100.319400</ele>
        <time>2025-08-09T09:54:57.629Z</time>
      </trkpt>
      <trkpt lat="52.010968" lon="8.850851">
        <ele>99.745185</ele>
        <time>2025-08-09T09:55:14.375Z</time>
      </trkpt>
      <trkpt lat="52.011587" lon="8.851720">
        <ele>99.258910</ele>
        <time>2025-08-09T09:55:34.615Z</time>
      </trkpt>
      <trkpt lat="52.011980" lon="8.852277">
        <ele>99.048436</ele>
        <time>2025-08-09T09:55:47.152Z</time>
      </trkpt>
      <trkpt lat="52.012020" lon="8.852319">
        <ele>99.029215</ele>
        <time>2025-08-09T09:55:48.285Z</time>
      </trkpt>
      <trkpt lat="52.012156" lon="8.852861">
        <ele>98.883824</ele>
        <time>2025-08-09T09:55:56.959Z</time>
      </trkpt>
      <trkpt lat="52.012187" lon="8.852878">
        <ele>98.870620</ele>
        <time>2025-08-09T09:55:57.761Z</time>
      </trkpt>
      <trkpt lat="52.012349" lon="8.854339">
        <ele>98.897707</ele>
        <time>2025-08-09T09:56:22.846Z</time>
      </trkpt>
      <trkpt lat="52.012379" lon="8.854567">
        <ele>98.950420</ele>
        <time>2025-08-09T09:56:26.999Z</time>
      </trkpt>
      <trkpt lat="52.012410" lon="8.854906">
        <ele>99.027906</ele>
        <time>2025-08-09T09:56:33.300Z</time>
      </trkpt>
      <trkpt lat="52.012504" lon="8.855292">
        <ele>99.121760</ele>
        <time>2025-08-09T09:56:40.963Z</time>
      </trkpt>
      <trkpt lat="52.012655" lon="8.855646">
        <ele>99.219137</ele>
        <time>2025-08-09T09:56:49.033Z</time>
      </trkpt>
      <trkpt lat="52.013080" lon="8.856317">
        <ele>99.280841</ele>
        <time>2025-08-09T09:57:06.668Z</time>
      </trkpt>
      <trkpt lat="52.014740" lon="8.858608">
        <ele>97.882593</ele>
        <time>2025-08-09T09:57:58.683Z</time>
      </trkpt>
      <trkpt lat="52.015739" lon="8.860021">
        <ele>96.555972</ele>
        <time>2025-08-09T09:58:28.228Z</time>
      </trkpt>
      <trkpt lat="52.015959" lon="8.860322">
        <ele>96.611656</ele>
        <time>2025-08-09T09:58:34.998Z</time>
      </trkpt>
      <trkpt lat="52.016029" lon="8.860465">
        <ele>96.633429</ele>
        <time>2025-08-09T09:58:37.748Z</time>
      </trkpt>
      <trkpt lat="52.016168" lon="8.860669">
        <ele>96.669694</ele>
        <time>2025-08-09T09:58:42.478Z</time>
      </trkpt>
      <trkpt lat="52.016290" lon="8.860772">
        <ele>96.696313</ele>
        <time>2025-08-09T09:58:46.098Z</time>
      </trkpt>
      <trkpt lat="52.016368" lon="8.860892">
        <ele>96.717111</ele>
        <time>2025-08-09T09:58:49.028Z</time>
      </trkpt>
      <trkpt lat="52.016997" lon="8.861828">
        <ele>96.882249</ele>
        <time>2025-08-09T09:59:15.183Z</time>
      </trkpt>
      <trkpt lat="52.017309" lon="8.862350">
        <ele>97.560120</ele>
        <time>2025-08-09T09:59:31.300Z</time>
      </trkpt>
      <trkpt lat="52.017610" lon="8.862913">
        <ele>98.291830</ele>
        <time>2025-08-09T09:59:47.670Z</time>
      </trkpt>
      <trkpt lat="52.017780" lon="8.863301">
        <ele>98.759132</ele>
        <time>2025-08-09T09:59:58.005Z</time>
      </trkpt>
      <trkpt lat="52.018331" lon="8.864899">
        <ele>100.321000</ele>
        <time>2025-08-09T10:00:36.169Z</time>
      </trkpt>
      <trkpt lat="52.019174" lon="8.867494">
        <ele>102.143553</ele>
        <time>2025-08-09T10:01:32.854Z</time>
      </trkpt>
      <trkpt lat="52.019238" lon="8.867638">
        <ele>102.221373</ele>
        <time>2025-08-09T10:01:36.204Z</time>
      </trkpt>
      <trkpt lat="52.020249" lon="8.870705">
        <ele>103.251112</ele>
        <time>2025-08-09T10:02:39.201Z</time>
      </trkpt>
      <trkpt lat="52.020832" lon="8.872495">
        <ele>102.997804</ele>
        <time>2025-08-09T10:03:11.400Z</time>
      </trkpt>
      <trkpt lat="52.021005" lon="8.873176">
        <ele>102.534068</ele>
        <time>2025-08-09T10:03:22.025Z</time>
      </trkpt>
      <trkpt lat="52.021091" lon="8.873610">
        <ele>102.247078</ele>
        <time>2025-08-09T10:03:28.376Z</time>
      </trkpt>
      <trkpt lat="52.021186" lon="8.873984">
        <ele>101.992403</ele>
        <time>2025-08-09T10:03:33.885Z</time>
      </trkpt>
      <trkpt lat="52.021261" lon="8.874882">
        <ele>101.334984</ele>
        <time>2025-08-09T10:03:46.063Z</time>
      </trkpt>
      <trkpt lat="52.021335" lon="8.875208">
        <ele>100.993358</ele>
        <time>2025-08-09T10:03:50.668Z</time>
      </trkpt>
      <trkpt lat="52.021279" lon="8.875550">
        <ele>100.645412</ele>
        <time>2025-08-09T10:03:55.244Z</time>
      </trkpt>
      <trkpt lat="52.021242" lon="8.875587">
        <ele>100.576001</ele>
        <time>2025-08-09T10:03:56.145Z</time>
      </trkpt>
      <trkpt lat="52.021186" lon="8.875625">
        <ele>100.479042</ele>
        <time>2025-08-09T10:03:57.452Z</time>
      </trkpt>
      <trkpt lat="52.021154" lon="8.875667">
        <ele>100.413322</ele>
        <time>2025-08-09T10:03:58.305Z</time>
      </trkpt>
      <trkpt lat="52.021184" lon="8.875898">
        <ele>100.181206</ele>
        <time>2025-08-09T10:04:01.378Z</time>
      </trkpt>
      <trkpt lat="52.021177" lon="8.876205">
        <ele>99.879163</ele>
        <time>2025-08-09T10:04:05.401Z</time>
      </trkpt>
      <trkpt lat="52.020901" lon="8.877928">
        <ele>98.461929</ele>
        <time>2025-08-09T10:04:29.936Z</time>
      </trkpt>
      <trkpt lat="52.020656" lon="8.878842">
        <ele>98.050384</ele>
        <time>2025-08-09T10:04:44.530Z</time>
      </trkpt>
      <trkpt lat="52.020428" lon="8.879004">
        <ele>97.883457</ele>
        <time>2025-08-09T10:04:50.741Z</time>
      </trkpt>
      <trkpt lat="52.020413" lon="8.879125">
        <ele>97.832504</ele>
        <time>2025-08-09T10:04:52.610Z</time>
      </trkpt>
      <trkpt lat="52.020408" lon="8.879227">
        <ele>97.790264</ele>
        <time>2025-08-09T10:04:54.222Z</time>
      </trkpt>
      <trkpt lat="52.020407" lon="8.879274">
        <ele>97.770850</ele>
        <time>2025-08-09T10:04:54.962Z</time>
      </trkpt>
      <trkpt lat="52.020533" lon="8.879543">
        <ele>97.631297</ele>
        <time>2025-08-09T10:05:00.185Z</time>
      </trkpt>
      <trkpt lat="52.020546" lon="8.879682">
        <ele>97.573258</ele>
        <time>2025-08-09T10:05:02.371Z</time>
      </trkpt>
      <trkpt lat="52.020517" lon="8.879949">
        <ele>97.473289</ele>
        <time>2025-08-09T10:05:06.632Z</time>
      </trkpt>
      <trkpt lat="52.020506" lon="8.880503">
        <ele>97.322160</ele>
        <time>2025-08-09T10:05:16.073Z</time>
      </trkpt>
      <trkpt lat="52.020380" lon="8.881143">
        <ele>97.138948</ele>
        <time>2025-08-09T10:05:26.490Z</time>
      </trkpt>
      <trkpt lat="52.020319" lon="8.881402">
        <ele>97.063335</ele>
        <time>2025-08-09T10:05:30.632Z</time>
      </trkpt>
      <trkpt lat="52.020253" lon="8.881725">
        <ele>96.970539</ele>
        <time>2025-08-09T10:05:35.667Z</time>
      </trkpt>
      <trkpt lat="52.020275" lon="8.881843">
        <ele>96.936922</ele>
        <time>2025-08-09T10:05:37.480Z</time>
      </trkpt>
      <trkpt lat="52.020381" lon="8.882072">
        <ele>96.858792</ele>
        <time>2025-08-09T10:05:41.653Z</time>
      </trkpt>
      <trkpt lat="52.020436" lon="8.882081">
        <ele>96.834300</ele>
        <time>2025-08-09T10:05:42.980Z</time>
      </trkpt>
      <trkpt lat="52.020491" lon="8.882068">
        <ele>96.809675</ele>
        <time>2025-08-09T10:05:44.310Z</time>
      </trkpt>
      <trkpt lat="52.020531" lon="8.882051">
        <ele>96.791356</ele>
        <time>2025-08-09T10:05:45.291Z</time>
      </trkpt>
      <trkpt lat="52.020647" lon="8.881798">
        <ele>96.705333</ele>
        <time>2025-08-09T10:05:49.965Z</time>
      </trkpt>
      <trkpt lat="52.020752" lon="8.881759">
        <ele>96.695403</ele>
        <time>2025-08-09T10:05:53.481Z</time>
      </trkpt>
      <trkpt lat="52.021213" lon="8.881690">
        <ele>96.674792</ele>
        <time>2025-08-09T10:06:05.047Z</time>
      </trkpt>
      <trkpt lat="52.021520" lon="8.881645">
        <ele>96.661068</ele>
        <time>2025-08-09T10:06:12.920Z</time>
      </trkpt>
      <trkpt lat="52.021738" lon="8.881557">
        <ele>96.651067</ele>
        <time>2025-08-09T10:06:18.830Z</time>
      </trkpt>
      <trkpt lat="52.021801" lon="8.881607">
        <ele>96.647946</ele>
        <time>2025-08-09T10:06:20.845Z</time>
      </trkpt>
      <trkpt lat="52.021902" lon="8.881580">
        <ele>96.643389</ele>
        <time>2025-08-09T10:06:23.541Z</time>
      </trkpt>
      <trkpt lat="52.021980" lon="8.882209">
        <ele>96.625809</ele>
        <time>2025-08-09T10:06:35.176Z</time>
      </trkpt>
      <trkpt lat="52.022035" lon="8.882654">
        <ele>96.596675</ele>
        <time>2025-08-09T10:06:43.519Z</time>
      </trkpt>
      <trkpt lat="52.022059" lon="8.882878">
        <ele>96.573590</ele>
        <time>2025-08-09T10:06:47.636Z</time>
      </trkpt>
      <trkpt lat="52.022105" lon="8.883304">
        <ele>96.529678</ele>
        <time>2025-08-09T10:06:54.911Z</time>
      </trkpt>
      <trkpt lat="52.022134" lon="8.883560">
        <ele>96.503250</ele>
        <time>2025-08-09T10:06:59.302Z</time>
      </trkpt>
      <trkpt lat="52.022211" lon="8.884253">
        <ele>96.431753</ele>
        <time>2025-08-09T10:07:10.338Z</time>
      </trkpt>
      <trkpt lat="52.022255" lon="8.884645">
        <ele>96.391297</ele>
        <time>2025-08-09T10:07:16.319Z</time>
      </trkpt>
      <trkpt lat="52.022318" lon="8.885212">
        <ele>96.332800</ele>
        <time>2025-08-09T10:07:24.838Z</time>
      </trkpt>
      <trkpt lat="52.022445" lon="8.886378">
        <ele>96.359204</ele>
        <time>2025-08-09T10:07:42.255Z</time>
      </trkpt>
      <trkpt lat="52.022509" lon="8.886958">
        <ele>96.378974</ele>
        <time>2025-08-09T10:07:52.007Z</time>
      </trkpt>
      <trkpt lat="52.022511" lon="8.887196">
        <ele>96.386960</ele>
        <time>2025-08-09T10:07:56.395Z</time>
      </trkpt>
      <trkpt lat="52.022511" lon="8.887373">
        <ele>96.392899</ele>
        <time>2025-08-09T10:07:59.622Z</time>
      </trkpt>
      <trkpt lat="52.022494" lon="8.887400">
        <ele>96.394195</ele>
        <time>2025-08-09T10:08:00.357Z</time>
      </trkpt>
      <trkpt lat="52.022481" lon="8.887432">
        <ele>96.395481</ele>
        <time>2025-08-09T10:08:01.067Z</time>
      </trkpt>
      <trkpt lat="52.022472" lon="8.887468">
        <ele>96.396785</ele>
        <time>2025-08-09T10:08:01.750Z</time>
      </trkpt>
      <trkpt lat="52.022469" lon="8.887495">
        <ele>96.397705</ele>
        <time>2025-08-09T10:08:02.232Z</time>
      </trkpt>
      <trkpt lat="52.022477" lon="8.887608">
        <ele>96.401522</ele>
        <time>2025-08-09T10:08:04.331Z</time>
      </trkpt>
      <trkpt lat="52.022492" lon="8.887651">
        <ele>96.403180</ele>
        <time>2025-08-09T10:08:05.258Z</time>
      </trkpt>
      <trkpt lat="52.022516" lon="8.887689">
        <ele>96.405007</ele>
        <time>2025-08-09T10:08:06.211Z</time>
      </trkpt>
      <trkpt lat="52.022545" lon="8.887715">
        <ele>96.406813</ele>
        <time>2025-08-09T10:08:07.148Z</time>
      </trkpt>
      <trkpt lat="52.022595" lon="8.887902">
        <ele>96.413654</ele>
        <time>2025-08-09T10:08:10.910Z</time>
      </trkpt>
      <trkpt lat="52.022645" lon="8.888109">
        <ele>96.426101</ele>
        <time>2025-08-09T10:08:14.966Z</time>
      </trkpt>
      <trkpt lat="52.022689" lon="8.888554">
        <ele>96.729427</ele>
        <time>2025-08-09T10:08:23.377Z</time>
      </trkpt>
      <trkpt lat="52.022703" lon="8.888711">
        <ele>96.836192</ele>
        <time>2025-08-09T10:08:26.431Z</time>
      </trkpt>
      <trkpt lat="52.022842" lon="8.889981">
        <ele>97.704315</ele>
        <time>2025-08-09T10:08:53.065Z</time>
      </trkpt>
      <trkpt lat="52.022920" lon="8.890718">
        <ele>98.207597</ele>
        <time>2025-08-09T10:09:07.438Z</time>
      </trkpt>
      <trkpt lat="52.023006" lon="8.891521">
        <ele>98.554555</ele>
        <time>2025-08-09T10:09:23.757Z</time>
      </trkpt>
      <trkpt lat="52.023074" lon="8.892164">
        <ele>98.753200</ele>
        <time>2025-08-09T10:09:35.648Z</time>
      </trkpt>
      <trkpt lat="52.023110" lon="8.892529">
        <ele>98.865751</ele>
        <time>2025-08-09T10:09:41.826Z</time>
      </trkpt>
      <trkpt lat="52.023131" lon="8.892784">
        <ele>98.944084</ele>
        <time>2025-08-09T10:09:45.990Z</time>
      </trkpt>
      <trkpt lat="52.023159" lon="8.893269">
        <ele>99.092401</ele>
        <time>2025-08-09T10:09:53.997Z</time>
      </trkpt>
      <trkpt lat="52.023164" lon="8.893450">
        <ele>99.147566</ele>
        <time>2025-08-09T10:09:57.109Z</time>
      </trkpt>
      <trkpt lat="52.023171" lon="8.893721">
        <ele>99.230150</ele>
        <time>2025-08-09T10:10:01.997Z</time>
      </trkpt>
      <trkpt lat="52.023174" lon="8.893902">
        <ele>99.281928</ele>
        <time>2025-08-09T10:10:05.237Z</time>
      </trkpt>
      <trkpt lat="52.023177" lon="8.894091">
        <ele>99.313078</ele>
        <time>2025-08-09T10:10:08.785Z</time>
      </trkpt>
      <trkpt lat="52.023173" lon="8.894671">
        <ele>99.408645</ele>
        <time>2025-08-09T10:10:18.811Z</time>
      </trkpt>
      <trkpt lat="52.023171" lon="8.894890">
        <ele>99.444732</ele>
        <time>2025-08-09T10:10:22.412Z</time>
      </trkpt>
      <trkpt lat="52.023170" lon="8.895023">
        <ele>99.466647</ele>
        <time>2025-08-09T10:10:24.669Z</time>
      </trkpt>
      <trkpt lat="52.023167" lon="8.895289">
        <ele>99.510480</ele>
        <time>2025-08-09T10:10:29.282Z</time>
      </trkpt>
      <trkpt lat="52.023163" lon="8.895700">
        <ele>99.578206</ele>
        <time>2025-08-09T10:10:36.475Z</time>
      </trkpt>
      <trkpt lat="52.023158" lon="8.895991">
        <ele>99.626170</ele>
        <time>2025-08-09T10:10:41.630Z</time>
      </trkpt>
      <trkpt lat="52.023155" lon="8.896211">
        <ele>99.662426</ele>
        <time>2025-08-09T10:10:45.431Z</time>
      </trkpt>
      <trkpt lat="52.023147" lon="8.896628">
        <ele>99.731165</ele>
        <time>2025-08-09T10:10:52.742Z</time>
      </trkpt>
      <trkpt lat="52.023164" lon="8.897184">
        <ele>99.703627</ele>
        <time>2025-08-09T10:11:02.365Z</time>
      </trkpt>
      <trkpt lat="52.023196" lon="8.897471">
        <ele>99.661166</ele>
        <time>2025-08-09T10:11:07.177Z</time>
      </trkpt>
      <trkpt lat="52.023275" lon="8.897930">
        <ele>99.591781</ele>
        <time>2025-08-09T10:11:14.414Z</time>
      </trkpt>
      <trkpt lat="52.023442" lon="8.898660">
        <ele>99.478402</ele>
        <time>2025-08-09T10:11:25.736Z</time>
      </trkpt>
      <trkpt lat="52.023472" lon="8.898791">
        <ele>99.458054</ele>
        <time>2025-08-09T10:11:27.865Z</time>
      </trkpt>
      <trkpt lat="52.023474" lon="8.898910">
        <ele>99.440723</ele>
        <time>2025-08-09T10:11:29.742Z</time>
      </trkpt>
      <trkpt lat="52.023525" lon="8.899002">
        <ele>99.422697</ele>
        <time>2025-08-09T10:11:31.638Z</time>
      </trkpt>
      <trkpt lat="52.023556" lon="8.899139">
        <ele>99.401447</ele>
        <time>2025-08-09T10:11:33.970Z</time>
      </trkpt>
      <trkpt lat="52.023592" lon="8.899302">
        <ele>99.376236</ele>
        <time>2025-08-09T10:11:36.723Z</time>
      </trkpt>
      <trkpt lat="52.023588" lon="8.899390">
        <ele>99.363390</ele>
        <time>2025-08-09T10:11:38.184Z</time>
      </trkpt>
      <trkpt lat="52.023674" lon="8.899411">
        <ele>99.342815</ele>
        <time>2025-08-09T10:11:40.580Z</time>
      </trkpt>
      <trkpt lat="52.023849" lon="8.899407">
        <ele>99.312016</ele>
        <time>2025-08-09T10:11:45.644Z</time>
      </trkpt>
      <trkpt lat="52.024068" lon="8.899374">
        <ele>99.276893</ele>
        <time>2025-08-09T10:11:51.684Z</time>
      </trkpt>
      <trkpt lat="52.024100" lon="8.899368">
        <ele>99.271749</ele>
        <time>2025-08-09T10:11:52.564Z</time>
      </trkpt>
      <trkpt lat="52.024077" lon="8.899614">
        <ele>99.247298</ele>
        <time>2025-08-09T10:11:56.618Z</time>
      </trkpt>
      <trkpt lat="52.023986" lon="8.901106">
        <ele>99.099969</ele>
        <time>2025-08-09T10:12:20.461Z</time>
      </trkpt>
      <trkpt lat="52.023918" lon="8.901989">
        <ele>98.970785</ele>
        <time>2025-08-09T10:12:34.497Z</time>
      </trkpt>
      <trkpt lat="52.023946" lon="8.903493">
        <ele>98.642933</ele>
        <time>2025-08-09T10:12:57.285Z</time>
      </trkpt>
      <trkpt lat="52.023892" lon="8.904000">
        <ele>98.530822</ele>
        <time>2025-08-09T10:13:05.237Z</time>
      </trkpt>
      <trkpt lat="52.023872" lon="8.904100">
        <ele>98.507911</ele>
        <time>2025-08-09T10:13:06.881Z</time>
      </trkpt>
      <trkpt lat="52.023851" lon="8.904259">
        <ele>98.472478</ele>
        <time>2025-08-09T10:13:09.480Z</time>
      </trkpt>
      <trkpt lat="52.023846" lon="8.904631">
        <ele>98.388660</ele>
        <time>2025-08-09T10:13:15.430Z</time>
      </trkpt>
      <trkpt lat="52.023984" lon="8.905573">
        <ele>98.146401</ele>
        <time>2025-08-09T10:13:30.821Z</time>
      </trkpt>
      <trkpt lat="52.024136" lon="8.906030">
        <ele>98.016434</ele>
        <time>2025-08-09T10:13:38.735Z</time>
      </trkpt>
      <trkpt lat="52.024340" lon="8.906308">
        <ele>97.908191</ele>
        <time>2025-08-09T10:13:45.166Z</time>
      </trkpt>
      <trkpt lat="52.024396" lon="8.906385">
        <ele>97.878366</ele>
        <time>2025-08-09T10:13:47.015Z</time>
      </trkpt>
      <trkpt lat="52.025135" lon="8.907017">
        <ele>97.678625</ele>
        <time>2025-08-09T10:14:07.615Z</time>
      </trkpt>
      <trkpt lat="52.025188" lon="8.907045">
        <ele>97.678625</ele>
        <time>2025-08-09T10:14:09.474Z</time>
      </trkpt>
      <trkpt lat="52.025203" lon="8.907453">
        <ele>97.678625</ele>
        <time>2025-08-09T10:14:16.099Z</time>
      </trkpt>
      <trkpt lat="52.025148" lon="8.907466">
        <ele>97.678625</ele>
        <time>2025-08-09T10:14:17.997Z</time>
      </trkpt>
      <trkpt lat="52.025134" lon="8.907465">
        <ele>97.678625</ele>
        <time>2025-08-09T10:14:18.476Z</time>
      </trkpt>
      <trkpt lat="52.025044" lon="8.907447">
        <ele>97.678625</ele>
        <time>2025-08-09T10:14:20.773Z</time>
      </trkpt>
      <trkpt lat="52.024891" lon="8.907415">
        <ele>97.678625</ele>
        <time>2025-08-09T10:14:24.784Z</time>
      </trkpt>
      <trkpt lat="52.024761" lon="8.907326">
        <ele>97.678625</ele>
        <time>2025-08-09T10:14:28.499Z</time>
      </trkpt>
      <trkpt lat="52.024630" lon="8.907230">
        <ele>97.678625</ele>
        <time>2025-08-09T10:14:32.345Z</time>
      </trkpt>
      <trkpt lat="52.024501" lon="8.907135">
        <ele>97.678625</ele>
        <time>2025-08-09T10:14:36.216Z</time>
      </trkpt>
      <trkpt lat="52.024446" lon="8.907343">
        <ele>97.678625</ele>
        <time>2025-08-09T10:14:40.106Z</time>
      </trkpt>
    </trkseg>
  </trk>
</gpx>